<?xml version="1.0" encoding="UTF-8" standalone="no" ?>
<gpx xmlns="http://www.topografix.com/GPX/1/1" xmlns:xsi="http://www.w3.org/2001/XMLSchema-instance" xsi:schemaLocation="http://www.topografix.com/GPX/1/1 http://www.topografix.com/GPX/1/1/gpx.xsd" version="1.1" creator="VisuGPX - https://www.visugpx.com">
  <metadata>
    <name>Rando cyclo-camping 3 jours dans l'Aude</name>
    <desc><![CDATA[Une virée de 3 jours en autonomie pour découvrir les Corbières et la haute vallée de l'Aude. Une terre d'Abbayes et de châteaux moyenâgeux, rendue mythique par l'histoire du catharisme.
[img]https://vr7qlw.am.files.1drv.com/y4mekqlXUBwxKXAfBTY5ZOEoK6MNzj3hoNTwA_5MsuG7L9rpP-dCYBzvxp2iWEBehn4aWu3jUdAz5wUC1BnKMdoOXicRYBWs6DqN7YH9WfXaVpboLnusUH7DchT6_ezJo75Y0k-2vQRrbU5S9XT_ob0MpuWyW-g5Xk2wmIvcBU41wm68nXeqaeEFpbhE4PjDHAwBk3w3U3NjJn-fcK9lSh31w?width=256&height=171&cropmode=none[/img]
Pour une lecture du récit de ces 3 jours rendez-vous sur mon blog [url=https://monexperiencevelo.blogspot.com/2018/05/3-jours-en-cyclo-camping-dans-laude.html]ici[/url].]]></desc>
  </metadata>
  <wpt lat="43.0968" lon="2.40182">
    <ele>281.5</ele>
    <name><![CDATA[Abbaye de Rieunette]]></name>
  </wpt>
  <wpt lat="43.10468" lon="2.4537">
    <ele>493.2</ele>
    <name><![CDATA[Départ / Bivouac 1]]></name>
  </wpt>
  <wpt lat="42.98211" lon="2.37672">
    <ele>663.1</ele>
    <name><![CDATA[Arrivée / Bivouac Mairie Valmigère]]></name>
  </wpt>
  <wpt lat="43.18735" lon="2.97575">
    <ele>20.8</ele>
    <name><![CDATA[Départ/Arrivée Parking]]></name>
  </wpt>
  <trk>
    <name><![CDATA[Aude J2]]></name>
    <extensions>
      <line xmlns="http://www.topografix.com/GPX/gpx_style/0/2">
        <color>0068f0</color>
        <width>4</width>
      </line>
    </extensions>
    <trkseg>
      <trkpt lat="43.10468" lon="2.4537">
        <ele>491</ele>
        <time>2018-05-20T07:15:19Z</time>
      </trkpt>
      <trkpt lat="43.10492" lon="2.45368">
        <ele>487</ele>
        <time>2018-05-20T07:15:48Z</time>
      </trkpt>
      <trkpt lat="43.10514" lon="2.45358">
        <ele>485</ele>
        <time>2018-05-20T07:15:52Z</time>
      </trkpt>
      <trkpt lat="43.10547" lon="2.4531">
        <ele>482</ele>
        <time>2018-05-20T07:16:01Z</time>
      </trkpt>
      <trkpt lat="43.10556" lon="2.45279">
        <ele>481</ele>
        <time>2018-05-20T07:16:05Z</time>
      </trkpt>
      <trkpt lat="43.10557" lon="2.45213">
        <ele>477</ele>
        <time>2018-05-20T07:16:12Z</time>
      </trkpt>
      <trkpt lat="43.10551" lon="2.45184">
        <ele>476</ele>
        <time>2018-05-20T07:16:14Z</time>
      </trkpt>
      <trkpt lat="43.10546" lon="2.45071">
        <ele>474</ele>
        <time>2018-05-20T07:16:26Z</time>
      </trkpt>
      <trkpt lat="43.10541" lon="2.45032">
        <ele>473</ele>
        <time>2018-05-20T07:16:31Z</time>
      </trkpt>
      <trkpt lat="43.10546" lon="2.45001">
        <ele>472</ele>
        <time>2018-05-20T07:16:33Z</time>
      </trkpt>
      <trkpt lat="43.10545" lon="2.44961">
        <ele>471</ele>
        <time>2018-05-20T07:16:37Z</time>
      </trkpt>
      <trkpt lat="43.10499" lon="2.44881">
        <ele>467</ele>
        <time>2018-05-20T07:16:47Z</time>
      </trkpt>
      <trkpt lat="43.10492" lon="2.4485">
        <ele>465</ele>
        <time>2018-05-20T07:16:51Z</time>
      </trkpt>
      <trkpt lat="43.10498" lon="2.4481">
        <ele>463</ele>
        <time>2018-05-20T07:16:55Z</time>
      </trkpt>
      <trkpt lat="43.1051" lon="2.44781">
        <ele>461</ele>
        <time>2018-05-20T07:16:59Z</time>
      </trkpt>
      <trkpt lat="43.10533" lon="2.44766">
        <ele>460</ele>
        <time>2018-05-20T07:17:03Z</time>
      </trkpt>
      <trkpt lat="43.10555" lon="2.44761">
        <ele>459</ele>
        <time>2018-05-20T07:17:32Z</time>
      </trkpt>
      <trkpt lat="43.10579" lon="2.44751">
        <ele>458</ele>
        <time>2018-05-20T07:17:39Z</time>
      </trkpt>
      <trkpt lat="43.10583" lon="2.44719">
        <ele>456</ele>
        <time>2018-05-20T07:17:46Z</time>
      </trkpt>
      <trkpt lat="43.10538" lon="2.44638">
        <ele>452</ele>
        <time>2018-05-20T07:17:59Z</time>
      </trkpt>
      <trkpt lat="43.10527" lon="2.44606">
        <ele>450</ele>
        <time>2018-05-20T07:18:03Z</time>
      </trkpt>
      <trkpt lat="43.10518" lon="2.44531">
        <ele>448</ele>
        <time>2018-05-20T07:18:11Z</time>
      </trkpt>
      <trkpt lat="43.105" lon="2.44461">
        <ele>445</ele>
        <time>2018-05-20T07:18:18Z</time>
      </trkpt>
      <trkpt lat="43.10471" lon="2.44402">
        <ele>442</ele>
        <time>2018-05-20T07:18:25Z</time>
      </trkpt>
      <trkpt lat="43.10427" lon="2.44209">
        <ele>436</ele>
        <time>2018-05-20T07:18:44Z</time>
      </trkpt>
      <trkpt lat="43.10408" lon="2.44073">
        <ele>432</ele>
        <time>2018-05-20T07:18:56Z</time>
      </trkpt>
      <trkpt lat="43.10401" lon="2.44043">
        <ele>431</ele>
        <time>2018-05-20T07:19:00Z</time>
      </trkpt>
      <trkpt lat="43.10381" lon="2.44016">
        <ele>429</ele>
        <time>2018-05-20T07:19:03Z</time>
      </trkpt>
      <trkpt lat="43.1037" lon="2.43984">
        <ele>427</ele>
        <time>2018-05-20T07:19:07Z</time>
      </trkpt>
      <trkpt lat="43.10366" lon="2.4395">
        <ele>426</ele>
        <time>2018-05-20T07:19:09Z</time>
      </trkpt>
      <trkpt lat="43.10372" lon="2.43911">
        <ele>425</ele>
        <time>2018-05-20T07:19:13Z</time>
      </trkpt>
      <trkpt lat="43.10417" lon="2.43832">
        <ele>422</ele>
        <time>2018-05-20T07:19:22Z</time>
      </trkpt>
      <trkpt lat="43.10425" lon="2.438">
        <ele>421</ele>
        <time>2018-05-20T07:19:25Z</time>
      </trkpt>
      <trkpt lat="43.10418" lon="2.43733">
        <ele>419</ele>
        <time>2018-05-20T07:19:32Z</time>
      </trkpt>
      <trkpt lat="43.10433" lon="2.43703">
        <ele>417</ele>
        <time>2018-05-20T07:19:35Z</time>
      </trkpt>
      <trkpt lat="43.10475" lon="2.43605">
        <ele>411</ele>
        <time>2018-05-20T07:19:47Z</time>
      </trkpt>
      <trkpt lat="43.10497" lon="2.43593">
        <ele>410</ele>
        <time>2018-05-20T07:19:51Z</time>
      </trkpt>
      <trkpt lat="43.1054" lon="2.43757">
        <ele>401</ele>
        <time>2018-05-20T07:20:08Z</time>
      </trkpt>
      <trkpt lat="43.10549" lon="2.43786">
        <ele>399</ele>
        <time>2018-05-20T07:20:11Z</time>
      </trkpt>
      <trkpt lat="43.10574" lon="2.43769">
        <ele>398</ele>
        <time>2018-05-20T07:20:17Z</time>
      </trkpt>
      <trkpt lat="43.10584" lon="2.43738">
        <ele>397</ele>
        <time>2018-05-20T07:20:20Z</time>
      </trkpt>
      <trkpt lat="43.1058" lon="2.43708">
        <ele>395</ele>
        <time>2018-05-20T07:20:23Z</time>
      </trkpt>
      <trkpt lat="43.10593" lon="2.43632">
        <ele>392</ele>
        <time>2018-05-20T07:20:32Z</time>
      </trkpt>
      <trkpt lat="43.10589" lon="2.43601">
        <ele>391</ele>
        <time>2018-05-20T07:20:34Z</time>
      </trkpt>
      <trkpt lat="43.10597" lon="2.43571">
        <ele>389</ele>
        <time>2018-05-20T07:20:38Z</time>
      </trkpt>
      <trkpt lat="43.10613" lon="2.43549">
        <ele>387</ele>
        <time>2018-05-20T07:20:41Z</time>
      </trkpt>
      <trkpt lat="43.10628" lon="2.43523">
        <ele>385</ele>
        <time>2018-05-20T07:20:43Z</time>
      </trkpt>
      <trkpt lat="43.10646" lon="2.43492">
        <ele>384</ele>
        <time>2018-05-20T07:20:48Z</time>
      </trkpt>
      <trkpt lat="43.10669" lon="2.43474">
        <ele>382</ele>
        <time>2018-05-20T07:20:51Z</time>
      </trkpt>
      <trkpt lat="43.10693" lon="2.43459">
        <ele>381</ele>
        <time>2018-05-20T07:20:55Z</time>
      </trkpt>
      <trkpt lat="43.10684" lon="2.43429">
        <ele>379</ele>
        <time>2018-05-20T07:20:59Z</time>
      </trkpt>
      <trkpt lat="43.10667" lon="2.43405">
        <ele>377</ele>
        <time>2018-05-20T07:21:04Z</time>
      </trkpt>
      <trkpt lat="43.10694" lon="2.43338">
        <ele>375</ele>
        <time>2018-05-20T07:21:13Z</time>
      </trkpt>
      <trkpt lat="43.10738" lon="2.43289">
        <ele>374</ele>
        <time>2018-05-20T07:21:20Z</time>
      </trkpt>
      <trkpt lat="43.10753" lon="2.4326">
        <ele>372</ele>
        <time>2018-05-20T07:21:30Z</time>
      </trkpt>
      <trkpt lat="43.10758" lon="2.43163">
        <ele>367</ele>
        <time>2018-05-20T07:21:54Z</time>
      </trkpt>
      <trkpt lat="43.10795" lon="2.43033">
        <ele>362</ele>
        <time>2018-05-20T07:22:10Z</time>
      </trkpt>
      <trkpt lat="43.1079" lon="2.42956">
        <ele>359</ele>
        <time>2018-05-20T07:22:19Z</time>
      </trkpt>
      <trkpt lat="43.10795" lon="2.42921">
        <ele>358</ele>
        <time>2018-05-20T07:22:22Z</time>
      </trkpt>
      <trkpt lat="43.10829" lon="2.42868">
        <ele>355</ele>
        <time>2018-05-20T07:22:29Z</time>
      </trkpt>
      <trkpt lat="43.1085" lon="2.42803">
        <ele>353</ele>
        <time>2018-05-20T07:22:36Z</time>
      </trkpt>
      <trkpt lat="43.10866" lon="2.42775">
        <ele>351</ele>
        <time>2018-05-20T07:22:41Z</time>
      </trkpt>
      <trkpt lat="43.10916" lon="2.42794">
        <ele>348</ele>
        <time>2018-05-20T07:22:49Z</time>
      </trkpt>
      <trkpt lat="43.10943" lon="2.42791">
        <ele>348</ele>
        <time>2018-05-20T07:22:54Z</time>
      </trkpt>
      <trkpt lat="43.10959" lon="2.42766">
        <ele>347</ele>
        <time>2018-05-20T07:22:58Z</time>
      </trkpt>
      <trkpt lat="43.10907" lon="2.42687">
        <ele>342</ele>
        <time>2018-05-20T07:23:14Z</time>
      </trkpt>
      <trkpt lat="43.10894" lon="2.42661">
        <ele>340</ele>
        <time>2018-05-20T07:23:19Z</time>
      </trkpt>
      <trkpt lat="43.10905" lon="2.42492">
        <ele>328</ele>
        <time>2018-05-20T07:23:41Z</time>
      </trkpt>
      <trkpt lat="43.10904" lon="2.42424">
        <ele>324</ele>
        <time>2018-05-20T07:23:50Z</time>
      </trkpt>
      <trkpt lat="43.10897" lon="2.42392">
        <ele>323</ele>
        <time>2018-05-20T07:23:54Z</time>
      </trkpt>
      <trkpt lat="43.10883" lon="2.42154">
        <ele>320</ele>
        <time>2018-05-20T07:24:27Z</time>
      </trkpt>
      <trkpt lat="43.10908" lon="2.42059">
        <ele>320</ele>
        <time>2018-05-20T07:24:37Z</time>
      </trkpt>
      <trkpt lat="43.109" lon="2.42027">
        <ele>319</ele>
        <time>2018-05-20T07:24:42Z</time>
      </trkpt>
      <trkpt lat="43.10827" lon="2.41987">
        <ele>319</ele>
        <time>2018-05-20T07:24:53Z</time>
      </trkpt>
      <trkpt lat="43.10807" lon="2.41971">
        <ele>319</ele>
        <time>2018-05-20T07:25:00Z</time>
      </trkpt>
      <trkpt lat="43.10798" lon="2.4194">
        <ele>319</ele>
        <time>2018-05-20T07:25:07Z</time>
      </trkpt>
      <trkpt lat="43.10798" lon="2.41907">
        <ele>311</ele>
        <time>2018-05-20T07:26:35Z</time>
      </trkpt>
      <trkpt lat="43.10811" lon="2.4181">
        <ele>309</ele>
        <time>2018-05-20T07:26:59Z</time>
      </trkpt>
      <trkpt lat="43.10805" lon="2.41741">
        <ele>309</ele>
        <time>2018-05-20T07:27:09Z</time>
      </trkpt>
      <trkpt lat="43.10806" lon="2.41706">
        <ele>309</ele>
        <time>2018-05-20T07:27:16Z</time>
      </trkpt>
      <trkpt lat="43.10817" lon="2.41677">
        <ele>308</ele>
        <time>2018-05-20T07:27:29Z</time>
      </trkpt>
      <trkpt lat="43.10835" lon="2.41658">
        <ele>308</ele>
        <time>2018-05-20T07:27:36Z</time>
      </trkpt>
      <trkpt lat="43.10855" lon="2.41637">
        <ele>307</ele>
        <time>2018-05-20T07:27:39Z</time>
      </trkpt>
      <trkpt lat="43.1088" lon="2.41569">
        <ele>307</ele>
        <time>2018-05-20T07:27:49Z</time>
      </trkpt>
      <trkpt lat="43.10922" lon="2.41517">
        <ele>306</ele>
        <time>2018-05-20T07:27:58Z</time>
      </trkpt>
      <trkpt lat="43.10923" lon="2.41483">
        <ele>306</ele>
        <time>2018-05-20T07:28:03Z</time>
      </trkpt>
      <trkpt lat="43.10895" lon="2.41426">
        <ele>304</ele>
        <time>2018-05-20T07:28:11Z</time>
      </trkpt>
      <trkpt lat="43.10877" lon="2.41402">
        <ele>303</ele>
        <time>2018-05-20T07:28:15Z</time>
      </trkpt>
      <trkpt lat="43.10867" lon="2.41372">
        <ele>302</ele>
        <time>2018-05-20T07:28:19Z</time>
      </trkpt>
      <trkpt lat="43.1084" lon="2.4131">
        <ele>301</ele>
        <time>2018-05-20T07:28:27Z</time>
      </trkpt>
      <trkpt lat="43.10819" lon="2.41284">
        <ele>300</ele>
        <time>2018-05-20T07:28:31Z</time>
      </trkpt>
      <trkpt lat="43.10763" lon="2.41271">
        <ele>299</ele>
        <time>2018-05-20T07:28:38Z</time>
      </trkpt>
      <trkpt lat="43.10752" lon="2.41239">
        <ele>298</ele>
        <time>2018-05-20T07:28:44Z</time>
      </trkpt>
      <trkpt lat="43.10764" lon="2.41174">
        <ele>297</ele>
        <time>2018-05-20T07:28:52Z</time>
      </trkpt>
      <trkpt lat="43.10772" lon="2.4114">
        <ele>296</ele>
        <time>2018-05-20T07:28:56Z</time>
      </trkpt>
      <trkpt lat="43.10814" lon="2.41098">
        <ele>294</ele>
        <time>2018-05-20T07:29:03Z</time>
      </trkpt>
      <trkpt lat="43.10803" lon="2.41067">
        <ele>293</ele>
        <time>2018-05-20T07:29:08Z</time>
      </trkpt>
      <trkpt lat="43.10781" lon="2.41053">
        <ele>293</ele>
        <time>2018-05-20T07:29:11Z</time>
      </trkpt>
      <trkpt lat="43.10758" lon="2.41042">
        <ele>290</ele>
        <time>2018-05-20T07:29:16Z</time>
      </trkpt>
      <trkpt lat="43.10731" lon="2.41031">
        <ele>289</ele>
        <time>2018-05-20T07:29:19Z</time>
      </trkpt>
      <trkpt lat="43.10705" lon="2.41035">
        <ele>289</ele>
        <time>2018-05-20T07:29:23Z</time>
      </trkpt>
      <trkpt lat="43.10684" lon="2.41054">
        <ele>290</ele>
        <time>2018-05-20T07:29:27Z</time>
      </trkpt>
      <trkpt lat="43.1066" lon="2.41074">
        <ele>290</ele>
        <time>2018-05-20T07:29:33Z</time>
      </trkpt>
      <trkpt lat="43.10587" lon="2.41095">
        <ele>289</ele>
        <time>2018-05-20T07:29:44Z</time>
      </trkpt>
      <trkpt lat="43.10564" lon="2.41114">
        <ele>289</ele>
        <time>2018-05-20T07:29:49Z</time>
      </trkpt>
      <trkpt lat="43.10537" lon="2.41114">
        <ele>289</ele>
        <time>2018-05-20T07:29:56Z</time>
      </trkpt>
      <trkpt lat="43.10531" lon="2.41083">
        <ele>289</ele>
        <time>2018-05-20T07:30:00Z</time>
      </trkpt>
      <trkpt lat="43.10519" lon="2.41054">
        <ele>288</ele>
        <time>2018-05-20T07:30:03Z</time>
      </trkpt>
      <trkpt lat="43.10503" lon="2.41032">
        <ele>287</ele>
        <time>2018-05-20T07:30:07Z</time>
      </trkpt>
      <trkpt lat="43.10452" lon="2.41018">
        <ele>286</ele>
        <time>2018-05-20T07:30:15Z</time>
      </trkpt>
      <trkpt lat="43.10428" lon="2.41029">
        <ele>285</ele>
        <time>2018-05-20T07:30:19Z</time>
      </trkpt>
      <trkpt lat="43.10405" lon="2.41015">
        <ele>284</ele>
        <time>2018-05-20T07:30:25Z</time>
      </trkpt>
      <trkpt lat="43.10412" lon="2.40911">
        <ele>278</ele>
        <time>2018-05-20T07:30:39Z</time>
      </trkpt>
      <trkpt lat="43.10384" lon="2.40745">
        <ele>273</ele>
        <time>2018-05-20T07:30:59Z</time>
      </trkpt>
      <trkpt lat="43.10347" lon="2.40652">
        <ele>272</ele>
        <time>2018-05-20T07:31:11Z</time>
      </trkpt>
      <trkpt lat="43.10321" lon="2.40642">
        <ele>271</ele>
        <time>2018-05-20T07:31:15Z</time>
      </trkpt>
      <trkpt lat="43.10298" lon="2.40649">
        <ele>271</ele>
        <time>2018-05-20T07:31:18Z</time>
      </trkpt>
      <trkpt lat="43.1025" lon="2.4062">
        <ele>270</ele>
        <time>2018-05-20T07:31:27Z</time>
      </trkpt>
      <trkpt lat="43.102" lon="2.4062">
        <ele>269</ele>
        <time>2018-05-20T07:31:34Z</time>
      </trkpt>
      <trkpt lat="43.10173" lon="2.40618">
        <ele>269</ele>
        <time>2018-05-20T07:31:37Z</time>
      </trkpt>
      <trkpt lat="43.10133" lon="2.40577">
        <ele>268</ele>
        <time>2018-05-20T07:31:46Z</time>
      </trkpt>
      <trkpt lat="43.10108" lon="2.40565">
        <ele>268</ele>
        <time>2018-05-20T07:31:51Z</time>
      </trkpt>
      <trkpt lat="43.10107" lon="2.40533">
        <ele>266</ele>
        <time>2018-05-20T07:32:01Z</time>
      </trkpt>
      <trkpt lat="43.10181" lon="2.4044">
        <ele>262</ele>
        <time>2018-05-20T07:32:24Z</time>
      </trkpt>
      <trkpt lat="43.10197" lon="2.40372">
        <ele>259</ele>
        <time>2018-05-20T07:32:34Z</time>
      </trkpt>
      <trkpt lat="43.10196" lon="2.40335">
        <ele>258</ele>
        <time>2018-05-20T07:32:38Z</time>
      </trkpt>
      <trkpt lat="43.10176" lon="2.40272">
        <ele>255</ele>
        <time>2018-05-20T07:32:47Z</time>
      </trkpt>
      <trkpt lat="43.10178" lon="2.40241">
        <ele>255</ele>
        <time>2018-05-20T07:32:51Z</time>
      </trkpt>
      <trkpt lat="43.10203" lon="2.40244">
        <ele>254</ele>
        <time>2018-05-20T07:32:55Z</time>
      </trkpt>
      <trkpt lat="43.10228" lon="2.40224">
        <ele>253</ele>
        <time>2018-05-20T07:32:58Z</time>
      </trkpt>
      <trkpt lat="43.10213" lon="2.4019">
        <ele>253</ele>
        <time>2018-05-20T07:33:02Z</time>
      </trkpt>
      <trkpt lat="43.10185" lon="2.40092">
        <ele>251</ele>
        <time>2018-05-20T07:33:15Z</time>
      </trkpt>
      <trkpt lat="43.10175" lon="2.40061">
        <ele>251</ele>
        <time>2018-05-20T07:33:18Z</time>
      </trkpt>
      <trkpt lat="43.10178" lon="2.39888">
        <ele>247</ele>
        <time>2018-05-20T07:33:39Z</time>
      </trkpt>
      <trkpt lat="43.10168" lon="2.3982">
        <ele>246</ele>
        <time>2018-05-20T07:33:48Z</time>
      </trkpt>
      <trkpt lat="43.10165" lon="2.39851">
        <ele>245</ele>
        <time>2018-05-20T07:34:11Z</time>
      </trkpt>
      <trkpt lat="43.10127" lon="2.40025">
        <ele>238</ele>
        <time>2018-05-20T07:34:37Z</time>
      </trkpt>
      <trkpt lat="43.10165" lon="2.40116">
        <ele>231</ele>
        <time>2018-05-20T07:34:51Z</time>
      </trkpt>
      <trkpt lat="43.10168" lon="2.40152">
        <ele>229</ele>
        <time>2018-05-20T07:34:56Z</time>
      </trkpt>
      <trkpt lat="43.10157" lon="2.40184">
        <ele>229</ele>
        <time>2018-05-20T07:35:01Z</time>
      </trkpt>
      <trkpt lat="43.10133" lon="2.40199">
        <ele>230</ele>
        <time>2018-05-20T07:35:07Z</time>
      </trkpt>
      <trkpt lat="43.10127" lon="2.40234">
        <ele>230</ele>
        <time>2018-05-20T07:35:13Z</time>
      </trkpt>
      <trkpt lat="43.10112" lon="2.40262">
        <ele>231</ele>
        <time>2018-05-20T07:35:21Z</time>
      </trkpt>
      <trkpt lat="43.10096" lon="2.40285">
        <ele>233</ele>
        <time>2018-05-20T07:35:34Z</time>
      </trkpt>
      <trkpt lat="43.10076" lon="2.40268">
        <ele>234</ele>
        <time>2018-05-20T07:35:46Z</time>
      </trkpt>
      <trkpt lat="43.10067" lon="2.40236">
        <ele>237</ele>
        <time>2018-05-20T07:36:25Z</time>
      </trkpt>
      <trkpt lat="43.10048" lon="2.40219">
        <ele>249</ele>
        <time>2018-05-20T07:37:36Z</time>
      </trkpt>
      <trkpt lat="43.10037" lon="2.40192">
        <ele>250</ele>
        <time>2018-05-20T07:37:54Z</time>
      </trkpt>
      <trkpt lat="43.1002" lon="2.40171">
        <ele>253</ele>
        <time>2018-05-20T07:38:08Z</time>
      </trkpt>
      <trkpt lat="43.10006" lon="2.40196">
        <ele>254</ele>
        <time>2018-05-20T07:38:23Z</time>
      </trkpt>
      <trkpt lat="43.0996" lon="2.40186">
        <ele>254</ele>
        <time>2018-05-20T07:38:45Z</time>
      </trkpt>
      <trkpt lat="43.09915" lon="2.40182">
        <ele>257</ele>
        <time>2018-05-20T07:39:09Z</time>
      </trkpt>
      <trkpt lat="43.09877" lon="2.40146">
        <ele>260</ele>
        <time>2018-05-20T07:39:38Z</time>
      </trkpt>
      <trkpt lat="43.09839" lon="2.40182">
        <ele>261</ele>
        <time>2018-05-20T07:40:08Z</time>
      </trkpt>
      <trkpt lat="43.09815" lon="2.40184">
        <ele>263</ele>
        <time>2018-05-20T07:40:21Z</time>
      </trkpt>
      <trkpt lat="43.09721" lon="2.40211">
        <ele>266</ele>
        <time>2018-05-20T07:40:48Z</time>
      </trkpt>
      <trkpt lat="43.09698" lon="2.40219">
        <ele>267</ele>
        <time>2018-05-20T07:40:58Z</time>
      </trkpt>
      <trkpt lat="43.09696" lon="2.40188">
        <ele>288</ele>
        <time>2018-05-20T07:43:40Z</time>
      </trkpt>
      <trkpt lat="43.0968" lon="2.40182">
        <ele>288</ele>
        <time>2018-05-20T09:35:56Z</time>
      </trkpt>
      <trkpt lat="43.09696" lon="2.40194">
        <ele>270</ele>
        <time>2018-05-20T09:40:38Z</time>
      </trkpt>
      <trkpt lat="43.09694" lon="2.40191">
        <ele>272</ele>
        <time>2018-05-20T10:18:00Z</time>
      </trkpt>
      <trkpt lat="43.09715" lon="2.40208">
        <ele>278</ele>
        <time>2018-05-20T11:15:49Z</time>
      </trkpt>
      <trkpt lat="43.09738" lon="2.40203">
        <ele>276</ele>
        <time>2018-05-20T11:16:01Z</time>
      </trkpt>
      <trkpt lat="43.09831" lon="2.40176">
        <ele>277</ele>
        <time>2018-05-20T11:16:35Z</time>
      </trkpt>
      <trkpt lat="43.09872" lon="2.40145">
        <ele>277</ele>
        <time>2018-05-20T11:16:47Z</time>
      </trkpt>
      <trkpt lat="43.09895" lon="2.40152">
        <ele>277</ele>
        <time>2018-05-20T11:16:54Z</time>
      </trkpt>
      <trkpt lat="43.09913" lon="2.40174">
        <ele>275</ele>
        <time>2018-05-20T11:17:00Z</time>
      </trkpt>
      <trkpt lat="43.09937" lon="2.40179">
        <ele>274</ele>
        <time>2018-05-20T11:17:06Z</time>
      </trkpt>
      <trkpt lat="43.09985" lon="2.40191">
        <ele>270</ele>
        <time>2018-05-20T11:17:18Z</time>
      </trkpt>
      <trkpt lat="43.10007" lon="2.40184">
        <ele>269</ele>
        <time>2018-05-20T11:17:27Z</time>
      </trkpt>
      <trkpt lat="43.10033" lon="2.40173">
        <ele>266</ele>
        <time>2018-05-20T11:17:33Z</time>
      </trkpt>
      <trkpt lat="43.10055" lon="2.40236">
        <ele>261</ele>
        <time>2018-05-20T11:17:43Z</time>
      </trkpt>
      <trkpt lat="43.10073" lon="2.40256">
        <ele>257</ele>
        <time>2018-05-20T11:17:49Z</time>
      </trkpt>
      <trkpt lat="43.10092" lon="2.40275">
        <ele>254</ele>
        <time>2018-05-20T11:17:55Z</time>
      </trkpt>
      <trkpt lat="43.10112" lon="2.40256">
        <ele>250</ele>
        <time>2018-05-20T11:18:01Z</time>
      </trkpt>
      <trkpt lat="43.10121" lon="2.40223">
        <ele>249</ele>
        <time>2018-05-20T11:18:08Z</time>
      </trkpt>
      <trkpt lat="43.10132" lon="2.40193">
        <ele>248</ele>
        <time>2018-05-20T11:18:16Z</time>
      </trkpt>
      <trkpt lat="43.10152" lon="2.40178">
        <ele>247</ele>
        <time>2018-05-20T11:18:22Z</time>
      </trkpt>
      <trkpt lat="43.10167" lon="2.40152">
        <ele>245</ele>
        <time>2018-05-20T11:18:29Z</time>
      </trkpt>
      <trkpt lat="43.10164" lon="2.40119">
        <ele>244</ele>
        <time>2018-05-20T11:18:35Z</time>
      </trkpt>
      <trkpt lat="43.10126" lon="2.40031">
        <ele>242</ele>
        <time>2018-05-20T11:18:56Z</time>
      </trkpt>
      <trkpt lat="43.10124" lon="2.40001">
        <ele>242</ele>
        <time>2018-05-20T11:19:05Z</time>
      </trkpt>
      <trkpt lat="43.10136" lon="2.39971">
        <ele>243</ele>
        <time>2018-05-20T11:19:13Z</time>
      </trkpt>
      <trkpt lat="43.10161" lon="2.39879">
        <ele>244</ele>
        <time>2018-05-20T11:19:47Z</time>
      </trkpt>
      <trkpt lat="43.10165" lon="2.39848">
        <ele>245</ele>
        <time>2018-05-20T11:19:57Z</time>
      </trkpt>
      <trkpt lat="43.1015" lon="2.39789">
        <ele>247</ele>
        <time>2018-05-20T11:20:21Z</time>
      </trkpt>
      <trkpt lat="43.10144" lon="2.39757">
        <ele>248</ele>
        <time>2018-05-20T11:21:12Z</time>
      </trkpt>
      <trkpt lat="43.10122" lon="2.39689">
        <ele>249</ele>
        <time>2018-05-20T11:21:24Z</time>
      </trkpt>
      <trkpt lat="43.10114" lon="2.39658">
        <ele>249</ele>
        <time>2018-05-20T11:21:29Z</time>
      </trkpt>
      <trkpt lat="43.10084" lon="2.39566">
        <ele>249</ele>
        <time>2018-05-20T11:21:43Z</time>
      </trkpt>
      <trkpt lat="43.10079" lon="2.39533">
        <ele>248</ele>
        <time>2018-05-20T11:21:48Z</time>
      </trkpt>
      <trkpt lat="43.10097" lon="2.39465">
        <ele>247</ele>
        <time>2018-05-20T11:21:58Z</time>
      </trkpt>
      <trkpt lat="43.10117" lon="2.39444">
        <ele>246</ele>
        <time>2018-05-20T11:22:02Z</time>
      </trkpt>
      <trkpt lat="43.10116" lon="2.39412">
        <ele>246</ele>
        <time>2018-05-20T11:22:07Z</time>
      </trkpt>
      <trkpt lat="43.10083" lon="2.39364">
        <ele>245</ele>
        <time>2018-05-20T11:22:15Z</time>
      </trkpt>
      <trkpt lat="43.10057" lon="2.39263">
        <ele>245</ele>
        <time>2018-05-20T11:22:29Z</time>
      </trkpt>
      <trkpt lat="43.10052" lon="2.39167">
        <ele>244</ele>
        <time>2018-05-20T11:22:41Z</time>
      </trkpt>
      <trkpt lat="43.10048" lon="2.39129">
        <ele>244</ele>
        <time>2018-05-20T11:22:45Z</time>
      </trkpt>
      <trkpt lat="43.10041" lon="2.39096">
        <ele>244</ele>
        <time>2018-05-20T11:22:51Z</time>
      </trkpt>
      <trkpt lat="43.10059" lon="2.39035">
        <ele>243</ele>
        <time>2018-05-20T11:22:59Z</time>
      </trkpt>
      <trkpt lat="43.10064" lon="2.39001">
        <ele>243</ele>
        <time>2018-05-20T11:23:03Z</time>
      </trkpt>
      <trkpt lat="43.1005" lon="2.38905">
        <ele>241</ele>
        <time>2018-05-20T11:23:15Z</time>
      </trkpt>
      <trkpt lat="43.10025" lon="2.38849">
        <ele>239</ele>
        <time>2018-05-20T11:23:23Z</time>
      </trkpt>
      <trkpt lat="43.0997" lon="2.38777">
        <ele>237</ele>
        <time>2018-05-20T11:23:35Z</time>
      </trkpt>
      <trkpt lat="43.09967" lon="2.38715">
        <ele>235</ele>
        <time>2018-05-20T11:23:43Z</time>
      </trkpt>
      <trkpt lat="43.1002" lon="2.38602">
        <ele>231</ele>
        <time>2018-05-20T11:24:00Z</time>
      </trkpt>
      <trkpt lat="43.10062" lon="2.38435">
        <ele>226</ele>
        <time>2018-05-20T11:24:18Z</time>
      </trkpt>
      <trkpt lat="43.10068" lon="2.38358">
        <ele>225</ele>
        <time>2018-05-20T11:24:26Z</time>
      </trkpt>
      <trkpt lat="43.10059" lon="2.38287">
        <ele>222</ele>
        <time>2018-05-20T11:24:34Z</time>
      </trkpt>
      <trkpt lat="43.10061" lon="2.38185">
        <ele>220</ele>
        <time>2018-05-20T11:24:46Z</time>
      </trkpt>
      <trkpt lat="43.10057" lon="2.38152">
        <ele>220</ele>
        <time>2018-05-20T11:24:50Z</time>
      </trkpt>
      <trkpt lat="43.10056" lon="2.38089">
        <ele>220</ele>
        <time>2018-05-20T11:24:58Z</time>
      </trkpt>
      <trkpt lat="43.10051" lon="2.38015">
        <ele>218</ele>
        <time>2018-05-20T11:25:08Z</time>
      </trkpt>
      <trkpt lat="43.10046" lon="2.37985">
        <ele>217</ele>
        <time>2018-05-20T11:25:13Z</time>
      </trkpt>
      <trkpt lat="43.1" lon="2.37966">
        <ele>216</ele>
        <time>2018-05-20T11:25:20Z</time>
      </trkpt>
      <trkpt lat="43.09974" lon="2.37954">
        <ele>216</ele>
        <time>2018-05-20T11:25:26Z</time>
      </trkpt>
      <trkpt lat="43.0995" lon="2.37948">
        <ele>216</ele>
        <time>2018-05-20T11:25:32Z</time>
      </trkpt>
      <trkpt lat="43.09926" lon="2.3795">
        <ele>215</ele>
        <time>2018-05-20T11:25:40Z</time>
      </trkpt>
      <trkpt lat="43.09891" lon="2.38081">
        <ele>215</ele>
        <time>2018-05-20T11:26:12Z</time>
      </trkpt>
      <trkpt lat="43.09869" lon="2.38139">
        <ele>215</ele>
        <time>2018-05-20T11:26:25Z</time>
      </trkpt>
      <trkpt lat="43.09811" lon="2.3824">
        <ele>214</ele>
        <time>2018-05-20T11:26:55Z</time>
      </trkpt>
      <trkpt lat="43.09792" lon="2.38264">
        <ele>214</ele>
        <time>2018-05-20T11:27:03Z</time>
      </trkpt>
      <trkpt lat="43.09771" lon="2.38273">
        <ele>214</ele>
        <time>2018-05-20T11:27:10Z</time>
      </trkpt>
      <trkpt lat="43.09745" lon="2.38275">
        <ele>215</ele>
        <time>2018-05-20T11:27:18Z</time>
      </trkpt>
      <trkpt lat="43.09632" lon="2.38212">
        <ele>218</ele>
        <time>2018-05-20T11:27:52Z</time>
      </trkpt>
      <trkpt lat="43.0951" lon="2.3817">
        <ele>217</ele>
        <time>2018-05-20T11:28:25Z</time>
      </trkpt>
      <trkpt lat="43.09485" lon="2.38161">
        <ele>217</ele>
        <time>2018-05-20T11:28:32Z</time>
      </trkpt>
      <trkpt lat="43.09465" lon="2.38147">
        <ele>217</ele>
        <time>2018-05-20T11:28:37Z</time>
      </trkpt>
      <trkpt lat="43.09453" lon="2.3812">
        <ele>218</ele>
        <time>2018-05-20T11:28:44Z</time>
      </trkpt>
      <trkpt lat="43.09446" lon="2.38057">
        <ele>220</ele>
        <time>2018-05-20T11:28:55Z</time>
      </trkpt>
      <trkpt lat="43.09452" lon="2.3799">
        <ele>221</ele>
        <time>2018-05-20T11:29:05Z</time>
      </trkpt>
      <trkpt lat="43.0945" lon="2.37956">
        <ele>221</ele>
        <time>2018-05-20T11:29:10Z</time>
      </trkpt>
      <trkpt lat="43.09424" lon="2.37893">
        <ele>222</ele>
        <time>2018-05-20T11:29:19Z</time>
      </trkpt>
      <trkpt lat="43.09404" lon="2.37875">
        <ele>222</ele>
        <time>2018-05-20T11:29:23Z</time>
      </trkpt>
      <trkpt lat="43.09377" lon="2.37871">
        <ele>222</ele>
        <time>2018-05-20T11:29:27Z</time>
      </trkpt>
      <trkpt lat="43.09351" lon="2.37868">
        <ele>222</ele>
        <time>2018-05-20T11:29:31Z</time>
      </trkpt>
      <trkpt lat="43.09267" lon="2.37933">
        <ele>221</ele>
        <time>2018-05-20T11:29:51Z</time>
      </trkpt>
      <trkpt lat="43.09243" lon="2.37938">
        <ele>220</ele>
        <time>2018-05-20T11:30:01Z</time>
      </trkpt>
      <trkpt lat="43.09176" lon="2.37973">
        <ele>223</ele>
        <time>2018-05-20T11:30:33Z</time>
      </trkpt>
      <trkpt lat="43.09152" lon="2.37971">
        <ele>224</ele>
        <time>2018-05-20T11:30:44Z</time>
      </trkpt>
      <trkpt lat="43.09068" lon="2.37902">
        <ele>226</ele>
        <time>2018-05-20T11:31:11Z</time>
      </trkpt>
      <trkpt lat="43.09051" lon="2.3788">
        <ele>227</ele>
        <time>2018-05-20T11:31:17Z</time>
      </trkpt>
      <trkpt lat="43.09035" lon="2.37814">
        <ele>228</ele>
        <time>2018-05-20T11:31:31Z</time>
      </trkpt>
      <trkpt lat="43.09021" lon="2.37786">
        <ele>229</ele>
        <time>2018-05-20T11:31:38Z</time>
      </trkpt>
      <trkpt lat="43.09" lon="2.37768">
        <ele>229</ele>
        <time>2018-05-20T11:31:45Z</time>
      </trkpt>
      <trkpt lat="43.08884" lon="2.37788">
        <ele>231</ele>
        <time>2018-05-20T11:32:20Z</time>
      </trkpt>
      <trkpt lat="43.08838" lon="2.37798">
        <ele>233</ele>
        <time>2018-05-20T11:32:36Z</time>
      </trkpt>
      <trkpt lat="43.08767" lon="2.3782">
        <ele>231</ele>
        <time>2018-05-20T11:32:53Z</time>
      </trkpt>
      <trkpt lat="43.08744" lon="2.37823">
        <ele>231</ele>
        <time>2018-05-20T11:32:59Z</time>
      </trkpt>
      <trkpt lat="43.08722" lon="2.37815">
        <ele>232</ele>
        <time>2018-05-20T11:33:06Z</time>
      </trkpt>
      <trkpt lat="43.08703" lon="2.37796">
        <ele>232</ele>
        <time>2018-05-20T11:33:14Z</time>
      </trkpt>
      <trkpt lat="43.08691" lon="2.37767">
        <ele>233</ele>
        <time>2018-05-20T11:33:23Z</time>
      </trkpt>
      <trkpt lat="43.0868" lon="2.37705">
        <ele>235</ele>
        <time>2018-05-20T11:33:39Z</time>
      </trkpt>
      <trkpt lat="43.08671" lon="2.37676">
        <ele>237</ele>
        <time>2018-05-20T11:33:47Z</time>
      </trkpt>
      <trkpt lat="43.08627" lon="2.37662">
        <ele>240</ele>
        <time>2018-05-20T11:34:05Z</time>
      </trkpt>
      <trkpt lat="43.08605" lon="2.37662">
        <ele>241</ele>
        <time>2018-05-20T11:34:14Z</time>
      </trkpt>
      <trkpt lat="43.0858" lon="2.37668">
        <ele>241</ele>
        <time>2018-05-20T11:34:22Z</time>
      </trkpt>
      <trkpt lat="43.08561" lon="2.37688">
        <ele>240</ele>
        <time>2018-05-20T11:34:30Z</time>
      </trkpt>
      <trkpt lat="43.08537" lon="2.37687">
        <ele>240</ele>
        <time>2018-05-20T11:34:38Z</time>
      </trkpt>
      <trkpt lat="43.08521" lon="2.37662">
        <ele>240</ele>
        <time>2018-05-20T11:34:46Z</time>
      </trkpt>
      <trkpt lat="43.08501" lon="2.37641">
        <ele>240</ele>
        <time>2018-05-20T11:34:54Z</time>
      </trkpt>
      <trkpt lat="43.08476" lon="2.37637">
        <ele>241</ele>
        <time>2018-05-20T11:35:02Z</time>
      </trkpt>
      <trkpt lat="43.08455" lon="2.37657">
        <ele>240</ele>
        <time>2018-05-20T11:35:10Z</time>
      </trkpt>
      <trkpt lat="43.08431" lon="2.37647">
        <ele>241</ele>
        <time>2018-05-20T11:35:18Z</time>
      </trkpt>
      <trkpt lat="43.08413" lon="2.37622">
        <ele>241</ele>
        <time>2018-05-20T11:35:26Z</time>
      </trkpt>
      <trkpt lat="43.08392" lon="2.37611">
        <ele>241</ele>
        <time>2018-05-20T11:35:33Z</time>
      </trkpt>
      <trkpt lat="43.08369" lon="2.37608">
        <ele>241</ele>
        <time>2018-05-20T11:35:40Z</time>
      </trkpt>
      <trkpt lat="43.08328" lon="2.37645">
        <ele>242</ele>
        <time>2018-05-20T11:35:54Z</time>
      </trkpt>
      <trkpt lat="43.08305" lon="2.3765">
        <ele>242</ele>
        <time>2018-05-20T11:36:01Z</time>
      </trkpt>
      <trkpt lat="43.08286" lon="2.37631">
        <ele>243</ele>
        <time>2018-05-20T11:36:08Z</time>
      </trkpt>
      <trkpt lat="43.08244" lon="2.37603">
        <ele>243</ele>
        <time>2018-05-20T11:36:22Z</time>
      </trkpt>
      <trkpt lat="43.08207" lon="2.37563">
        <ele>244</ele>
        <time>2018-05-20T11:36:36Z</time>
      </trkpt>
      <trkpt lat="43.08157" lon="2.37547">
        <ele>246</ele>
        <time>2018-05-20T11:36:50Z</time>
      </trkpt>
      <trkpt lat="43.08132" lon="2.37543">
        <ele>246</ele>
        <time>2018-05-20T11:36:57Z</time>
      </trkpt>
      <trkpt lat="43.08044" lon="2.37587">
        <ele>250</ele>
        <time>2018-05-20T11:37:27Z</time>
      </trkpt>
      <trkpt lat="43.07957" lon="2.37652">
        <ele>252</ele>
        <time>2018-05-20T11:38:03Z</time>
      </trkpt>
      <trkpt lat="43.07935" lon="2.37667">
        <ele>252</ele>
        <time>2018-05-20T11:38:12Z</time>
      </trkpt>
      <trkpt lat="43.07912" lon="2.37669">
        <ele>253</ele>
        <time>2018-05-20T11:38:20Z</time>
      </trkpt>
      <trkpt lat="43.0789" lon="2.37651">
        <ele>254</ele>
        <time>2018-05-20T11:38:29Z</time>
      </trkpt>
      <trkpt lat="43.07867" lon="2.37645">
        <ele>255</ele>
        <time>2018-05-20T11:38:38Z</time>
      </trkpt>
      <trkpt lat="43.07823" lon="2.37663">
        <ele>257</ele>
        <time>2018-05-20T11:38:56Z</time>
      </trkpt>
      <trkpt lat="43.07805" lon="2.37683">
        <ele>258</ele>
        <time>2018-05-20T11:39:05Z</time>
      </trkpt>
      <trkpt lat="43.078" lon="2.37713">
        <ele>257</ele>
        <time>2018-05-20T11:39:14Z</time>
      </trkpt>
      <trkpt lat="43.07794" lon="2.37744">
        <ele>258</ele>
        <time>2018-05-20T11:39:24Z</time>
      </trkpt>
      <trkpt lat="43.07764" lon="2.37796">
        <ele>258</ele>
        <time>2018-05-20T11:39:40Z</time>
      </trkpt>
      <trkpt lat="43.0774" lon="2.3785">
        <ele>256</ele>
        <time>2018-05-20T11:39:50Z</time>
      </trkpt>
      <trkpt lat="43.07725" lon="2.3788">
        <ele>255</ele>
        <time>2018-05-20T11:39:55Z</time>
      </trkpt>
      <trkpt lat="43.07699" lon="2.37884">
        <ele>255</ele>
        <time>2018-05-20T11:40:00Z</time>
      </trkpt>
      <trkpt lat="43.07699" lon="2.37888">
        <ele>257</ele>
        <time>2018-05-20T11:40:22Z</time>
      </trkpt>
      <trkpt lat="43.07705" lon="2.37891">
        <ele>255</ele>
        <time>2018-05-20T11:41:56Z</time>
      </trkpt>
      <trkpt lat="43.07683" lon="2.37876">
        <ele>256</ele>
        <time>2018-05-20T11:42:12Z</time>
      </trkpt>
      <trkpt lat="43.07657" lon="2.37818">
        <ele>256</ele>
        <time>2018-05-20T11:42:29Z</time>
      </trkpt>
      <trkpt lat="43.07653" lon="2.37788">
        <ele>257</ele>
        <time>2018-05-20T11:42:36Z</time>
      </trkpt>
      <trkpt lat="43.07658" lon="2.37755">
        <ele>258</ele>
        <time>2018-05-20T11:42:44Z</time>
      </trkpt>
      <trkpt lat="43.07657" lon="2.37724">
        <ele>260</ele>
        <time>2018-05-20T11:42:52Z</time>
      </trkpt>
      <trkpt lat="43.07643" lon="2.37698">
        <ele>261</ele>
        <time>2018-05-20T11:42:58Z</time>
      </trkpt>
      <trkpt lat="43.07601" lon="2.3766">
        <ele>261</ele>
        <time>2018-05-20T11:43:08Z</time>
      </trkpt>
      <trkpt lat="43.07556" lon="2.37637">
        <ele>262</ele>
        <time>2018-05-20T11:43:16Z</time>
      </trkpt>
      <trkpt lat="43.07455" lon="2.37651">
        <ele>261</ele>
        <time>2018-05-20T11:43:34Z</time>
      </trkpt>
      <trkpt lat="43.07314" lon="2.37584">
        <ele>264</ele>
        <time>2018-05-20T11:44:07Z</time>
      </trkpt>
      <trkpt lat="43.0729" lon="2.37574">
        <ele>265</ele>
        <time>2018-05-20T11:44:13Z</time>
      </trkpt>
      <trkpt lat="43.07243" lon="2.37594">
        <ele>267</ele>
        <time>2018-05-20T11:44:26Z</time>
      </trkpt>
      <trkpt lat="43.07218" lon="2.37599">
        <ele>267</ele>
        <time>2018-05-20T11:44:32Z</time>
      </trkpt>
      <trkpt lat="43.07192" lon="2.37598">
        <ele>267</ele>
        <time>2018-05-20T11:44:38Z</time>
      </trkpt>
      <trkpt lat="43.07173" lon="2.37581">
        <ele>267</ele>
        <time>2018-05-20T11:44:44Z</time>
      </trkpt>
      <trkpt lat="43.07155" lon="2.37558">
        <ele>268</ele>
        <time>2018-05-20T11:44:51Z</time>
      </trkpt>
      <trkpt lat="43.07065" lon="2.37522">
        <ele>271</ele>
        <time>2018-05-20T11:45:23Z</time>
      </trkpt>
      <trkpt lat="43.07043" lon="2.37513">
        <ele>272</ele>
        <time>2018-05-20T11:45:32Z</time>
      </trkpt>
      <trkpt lat="43.06948" lon="2.37514">
        <ele>274</ele>
        <time>2018-05-20T11:46:06Z</time>
      </trkpt>
      <trkpt lat="43.06925" lon="2.37513">
        <ele>275</ele>
        <time>2018-05-20T11:46:14Z</time>
      </trkpt>
      <trkpt lat="43.06902" lon="2.37514">
        <ele>278</ele>
        <time>2018-05-20T11:46:23Z</time>
      </trkpt>
      <trkpt lat="43.06878" lon="2.37516">
        <ele>279</ele>
        <time>2018-05-20T11:46:32Z</time>
      </trkpt>
      <trkpt lat="43.06856" lon="2.37508">
        <ele>280</ele>
        <time>2018-05-20T11:46:40Z</time>
      </trkpt>
      <trkpt lat="43.06788" lon="2.37539">
        <ele>284</ele>
        <time>2018-05-20T11:47:09Z</time>
      </trkpt>
      <trkpt lat="43.06751" lon="2.37576">
        <ele>287</ele>
        <time>2018-05-20T11:47:28Z</time>
      </trkpt>
      <trkpt lat="43.06731" lon="2.37592">
        <ele>289</ele>
        <time>2018-05-20T11:47:38Z</time>
      </trkpt>
      <trkpt lat="43.06711" lon="2.3761">
        <ele>291</ele>
        <time>2018-05-20T11:47:48Z</time>
      </trkpt>
      <trkpt lat="43.06695" lon="2.37671">
        <ele>295</ele>
        <time>2018-05-20T11:48:06Z</time>
      </trkpt>
      <trkpt lat="43.06682" lon="2.37701">
        <ele>296</ele>
        <time>2018-05-20T11:48:20Z</time>
      </trkpt>
      <trkpt lat="43.06675" lon="2.37732">
        <ele>297</ele>
        <time>2018-05-20T11:48:29Z</time>
      </trkpt>
      <trkpt lat="43.06666" lon="2.3776">
        <ele>297</ele>
        <time>2018-05-20T11:48:38Z</time>
      </trkpt>
      <trkpt lat="43.06646" lon="2.37781">
        <ele>296</ele>
        <time>2018-05-20T11:48:47Z</time>
      </trkpt>
      <trkpt lat="43.06624" lon="2.37796">
        <ele>297</ele>
        <time>2018-05-20T11:48:57Z</time>
      </trkpt>
      <trkpt lat="43.0659" lon="2.3784">
        <ele>298</ele>
        <time>2018-05-20T11:49:13Z</time>
      </trkpt>
      <trkpt lat="43.0657" lon="2.37898">
        <ele>300</ele>
        <time>2018-05-20T11:49:33Z</time>
      </trkpt>
      <trkpt lat="43.06538" lon="2.37946">
        <ele>299</ele>
        <time>2018-05-20T11:49:58Z</time>
      </trkpt>
      <trkpt lat="43.06523" lon="2.37972">
        <ele>299</ele>
        <time>2018-05-20T11:50:07Z</time>
      </trkpt>
      <trkpt lat="43.06506" lon="2.37994">
        <ele>302</ele>
        <time>2018-05-20T11:51:11Z</time>
      </trkpt>
      <trkpt lat="43.06491" lon="2.3802">
        <ele>310</ele>
        <time>2018-05-20T11:51:23Z</time>
      </trkpt>
      <trkpt lat="43.06477" lon="2.38046">
        <ele>310</ele>
        <time>2018-05-20T11:51:33Z</time>
      </trkpt>
      <trkpt lat="43.06456" lon="2.38058">
        <ele>311</ele>
        <time>2018-05-20T11:51:39Z</time>
      </trkpt>
      <trkpt lat="43.06411" lon="2.3809">
        <ele>311</ele>
        <time>2018-05-20T11:51:49Z</time>
      </trkpt>
      <trkpt lat="43.06396" lon="2.38114">
        <ele>311</ele>
        <time>2018-05-20T11:51:54Z</time>
      </trkpt>
      <trkpt lat="43.06376" lon="2.3813">
        <ele>312</ele>
        <time>2018-05-20T11:52:00Z</time>
      </trkpt>
      <trkpt lat="43.06366" lon="2.38159">
        <ele>319</ele>
        <time>2018-05-20T11:53:46Z</time>
      </trkpt>
      <trkpt lat="43.06353" lon="2.38185">
        <ele>315</ele>
        <time>2018-05-20T11:53:52Z</time>
      </trkpt>
      <trkpt lat="43.06344" lon="2.38213">
        <ele>312</ele>
        <time>2018-05-20T11:54:00Z</time>
      </trkpt>
      <trkpt lat="43.06334" lon="2.38278">
        <ele>312</ele>
        <time>2018-05-20T11:54:18Z</time>
      </trkpt>
      <trkpt lat="43.06327" lon="2.38309">
        <ele>313</ele>
        <time>2018-05-20T11:54:27Z</time>
      </trkpt>
      <trkpt lat="43.06315" lon="2.38338">
        <ele>311</ele>
        <time>2018-05-20T11:54:36Z</time>
      </trkpt>
      <trkpt lat="43.06297" lon="2.38431">
        <ele>311</ele>
        <time>2018-05-20T11:55:00Z</time>
      </trkpt>
      <trkpt lat="43.06301" lon="2.38462">
        <ele>313</ele>
        <time>2018-05-20T11:55:08Z</time>
      </trkpt>
      <trkpt lat="43.06314" lon="2.38489">
        <ele>315</ele>
        <time>2018-05-20T11:55:17Z</time>
      </trkpt>
      <trkpt lat="43.06322" lon="2.38518">
        <ele>315</ele>
        <time>2018-05-20T11:55:27Z</time>
      </trkpt>
      <trkpt lat="43.06322" lon="2.38549">
        <ele>317</ele>
        <time>2018-05-20T11:55:35Z</time>
      </trkpt>
      <trkpt lat="43.06316" lon="2.38581">
        <ele>318</ele>
        <time>2018-05-20T11:55:46Z</time>
      </trkpt>
      <trkpt lat="43.06306" lon="2.38612">
        <ele>317</ele>
        <time>2018-05-20T11:55:54Z</time>
      </trkpt>
      <trkpt lat="43.06302" lon="2.38645">
        <ele>317</ele>
        <time>2018-05-20T11:56:04Z</time>
      </trkpt>
      <trkpt lat="43.06281" lon="2.38772">
        <ele>320</ele>
        <time>2018-05-20T11:56:45Z</time>
      </trkpt>
      <trkpt lat="43.0627" lon="2.38801">
        <ele>321</ele>
        <time>2018-05-20T11:56:55Z</time>
      </trkpt>
      <trkpt lat="43.06223" lon="2.38877">
        <ele>319</ele>
        <time>2018-05-20T11:57:18Z</time>
      </trkpt>
      <trkpt lat="43.06207" lon="2.38902">
        <ele>319</ele>
        <time>2018-05-20T11:57:25Z</time>
      </trkpt>
      <trkpt lat="43.06184" lon="2.38906">
        <ele>320</ele>
        <time>2018-05-20T11:57:54Z</time>
      </trkpt>
      <trkpt lat="43.06162" lon="2.38924">
        <ele>321</ele>
        <time>2018-05-20T11:58:00Z</time>
      </trkpt>
      <trkpt lat="43.0615" lon="2.3895">
        <ele>321</ele>
        <time>2018-05-20T11:58:04Z</time>
      </trkpt>
      <trkpt lat="43.06115" lon="2.39052">
        <ele>317</ele>
        <time>2018-05-20T11:58:19Z</time>
      </trkpt>
      <trkpt lat="43.06107" lon="2.39082">
        <ele>316</ele>
        <time>2018-05-20T11:58:23Z</time>
      </trkpt>
      <trkpt lat="43.06099" lon="2.39115">
        <ele>316</ele>
        <time>2018-05-20T11:58:28Z</time>
      </trkpt>
      <trkpt lat="43.06082" lon="2.39139">
        <ele>315</ele>
        <time>2018-05-20T11:58:31Z</time>
      </trkpt>
      <trkpt lat="43.06074" lon="2.392">
        <ele>315</ele>
        <time>2018-05-20T11:58:43Z</time>
      </trkpt>
      <trkpt lat="43.06076" lon="2.39232">
        <ele>316</ele>
        <time>2018-05-20T11:58:50Z</time>
      </trkpt>
      <trkpt lat="43.06071" lon="2.3927">
        <ele>315</ele>
        <time>2018-05-20T11:58:58Z</time>
      </trkpt>
      <trkpt lat="43.06083" lon="2.39296">
        <ele>315</ele>
        <time>2018-05-20T11:59:06Z</time>
      </trkpt>
      <trkpt lat="43.06113" lon="2.39348">
        <ele>315</ele>
        <time>2018-05-20T11:59:25Z</time>
      </trkpt>
      <trkpt lat="43.06147" lon="2.39435">
        <ele>324</ele>
        <time>2018-05-20T11:59:57Z</time>
      </trkpt>
      <trkpt lat="43.06181" lon="2.39476">
        <ele>333</ele>
        <time>2018-05-20T12:00:22Z</time>
      </trkpt>
      <trkpt lat="43.062" lon="2.39536">
        <ele>337</ele>
        <time>2018-05-20T12:00:51Z</time>
      </trkpt>
      <trkpt lat="43.06215" lon="2.3956">
        <ele>336</ele>
        <time>2018-05-20T12:01:03Z</time>
      </trkpt>
      <trkpt lat="43.06232" lon="2.39622">
        <ele>336</ele>
        <time>2018-05-20T12:01:17Z</time>
      </trkpt>
      <trkpt lat="43.0623" lon="2.39657">
        <ele>335</ele>
        <time>2018-05-20T12:01:23Z</time>
      </trkpt>
      <trkpt lat="43.06213" lon="2.3972">
        <ele>333</ele>
        <time>2018-05-20T12:01:35Z</time>
      </trkpt>
      <trkpt lat="43.062" lon="2.3975">
        <ele>334</ele>
        <time>2018-05-20T12:01:42Z</time>
      </trkpt>
      <trkpt lat="43.06183" lon="2.39772">
        <ele>335</ele>
        <time>2018-05-20T12:01:49Z</time>
      </trkpt>
      <trkpt lat="43.06177" lon="2.39806">
        <ele>335</ele>
        <time>2018-05-20T12:01:57Z</time>
      </trkpt>
      <trkpt lat="43.06184" lon="2.39838">
        <ele>336</ele>
        <time>2018-05-20T12:02:04Z</time>
      </trkpt>
      <trkpt lat="43.06179" lon="2.39869">
        <ele>336</ele>
        <time>2018-05-20T12:02:11Z</time>
      </trkpt>
      <trkpt lat="43.06166" lon="2.39899">
        <ele>335</ele>
        <time>2018-05-20T12:02:18Z</time>
      </trkpt>
      <trkpt lat="43.06153" lon="2.39927">
        <ele>331</ele>
        <time>2018-05-20T12:02:25Z</time>
      </trkpt>
      <trkpt lat="43.06136" lon="2.3995">
        <ele>330</ele>
        <time>2018-05-20T12:02:32Z</time>
      </trkpt>
      <trkpt lat="43.06088" lon="2.39971">
        <ele>330</ele>
        <time>2018-05-20T12:02:46Z</time>
      </trkpt>
      <trkpt lat="43.06068" lon="2.3999">
        <ele>333</ele>
        <time>2018-05-20T12:02:53Z</time>
      </trkpt>
      <trkpt lat="43.06045" lon="2.40046">
        <ele>336</ele>
        <time>2018-05-20T12:03:07Z</time>
      </trkpt>
      <trkpt lat="43.06029" lon="2.40069">
        <ele>336</ele>
        <time>2018-05-20T12:03:14Z</time>
      </trkpt>
      <trkpt lat="43.06005" lon="2.40077">
        <ele>338</ele>
        <time>2018-05-20T12:03:22Z</time>
      </trkpt>
      <trkpt lat="43.05955" lon="2.40071">
        <ele>342</ele>
        <time>2018-05-20T12:03:38Z</time>
      </trkpt>
      <trkpt lat="43.05931" lon="2.40077">
        <ele>342</ele>
        <time>2018-05-20T12:03:48Z</time>
      </trkpt>
      <trkpt lat="43.05913" lon="2.40097">
        <ele>342</ele>
        <time>2018-05-20T12:03:56Z</time>
      </trkpt>
      <trkpt lat="43.05894" lon="2.40158">
        <ele>341</ele>
        <time>2018-05-20T12:04:11Z</time>
      </trkpt>
      <trkpt lat="43.0586" lon="2.40207">
        <ele>343</ele>
        <time>2018-05-20T12:04:26Z</time>
      </trkpt>
      <trkpt lat="43.05828" lon="2.40259">
        <ele>343</ele>
        <time>2018-05-20T12:04:38Z</time>
      </trkpt>
      <trkpt lat="43.05816" lon="2.40288">
        <ele>340</ele>
        <time>2018-05-20T12:04:42Z</time>
      </trkpt>
      <trkpt lat="43.05804" lon="2.40319">
        <ele>338</ele>
        <time>2018-05-20T12:04:47Z</time>
      </trkpt>
      <trkpt lat="43.058" lon="2.40383">
        <ele>335</ele>
        <time>2018-05-20T12:04:57Z</time>
      </trkpt>
      <trkpt lat="43.05786" lon="2.40449">
        <ele>332</ele>
        <time>2018-05-20T12:05:07Z</time>
      </trkpt>
      <trkpt lat="43.05776" lon="2.4051">
        <ele>333</ele>
        <time>2018-05-20T12:05:17Z</time>
      </trkpt>
      <trkpt lat="43.05768" lon="2.40539">
        <ele>335</ele>
        <time>2018-05-20T12:05:22Z</time>
      </trkpt>
      <trkpt lat="43.05745" lon="2.40634">
        <ele>335</ele>
        <time>2018-05-20T12:05:41Z</time>
      </trkpt>
      <trkpt lat="43.05734" lon="2.40663">
        <ele>335</ele>
        <time>2018-05-20T12:05:48Z</time>
      </trkpt>
      <trkpt lat="43.05715" lon="2.40685">
        <ele>334</ele>
        <time>2018-05-20T12:05:57Z</time>
      </trkpt>
      <trkpt lat="43.05702" lon="2.40713">
        <ele>334</ele>
        <time>2018-05-20T12:06:05Z</time>
      </trkpt>
      <trkpt lat="43.05699" lon="2.40744">
        <ele>336</ele>
        <time>2018-05-20T12:06:11Z</time>
      </trkpt>
      <trkpt lat="43.05689" lon="2.40774">
        <ele>337</ele>
        <time>2018-05-20T12:06:17Z</time>
      </trkpt>
      <trkpt lat="43.05673" lon="2.40802">
        <ele>335</ele>
        <time>2018-05-20T12:06:24Z</time>
      </trkpt>
      <trkpt lat="43.05656" lon="2.40823">
        <ele>334</ele>
        <time>2018-05-20T12:06:30Z</time>
      </trkpt>
      <trkpt lat="43.05614" lon="2.40856">
        <ele>335</ele>
        <time>2018-05-20T12:06:43Z</time>
      </trkpt>
      <trkpt lat="43.05597" lon="2.40881">
        <ele>336</ele>
        <time>2018-05-20T12:06:51Z</time>
      </trkpt>
      <trkpt lat="43.05607" lon="2.40948">
        <ele>339</ele>
        <time>2018-05-20T12:07:05Z</time>
      </trkpt>
      <trkpt lat="43.05608" lon="2.40983">
        <ele>341</ele>
        <time>2018-05-20T12:07:12Z</time>
      </trkpt>
      <trkpt lat="43.05592" lon="2.41007">
        <ele>341</ele>
        <time>2018-05-20T12:07:19Z</time>
      </trkpt>
      <trkpt lat="43.05527" lon="2.4105">
        <ele>344</ele>
        <time>2018-05-20T12:07:41Z</time>
      </trkpt>
      <trkpt lat="43.05516" lon="2.41112">
        <ele>345</ele>
        <time>2018-05-20T12:07:54Z</time>
      </trkpt>
      <trkpt lat="43.05487" lon="2.41162">
        <ele>345</ele>
        <time>2018-05-20T12:08:07Z</time>
      </trkpt>
      <trkpt lat="43.05421" lon="2.41208">
        <ele>346</ele>
        <time>2018-05-20T12:08:27Z</time>
      </trkpt>
      <trkpt lat="43.05344" lon="2.41283">
        <ele>348</ele>
        <time>2018-05-20T12:08:53Z</time>
      </trkpt>
      <trkpt lat="43.05331" lon="2.41346">
        <ele>347</ele>
        <time>2018-05-20T12:09:07Z</time>
      </trkpt>
      <trkpt lat="43.05276" lon="2.41461">
        <ele>347</ele>
        <time>2018-05-20T12:09:31Z</time>
      </trkpt>
      <trkpt lat="43.0526" lon="2.41486">
        <ele>347</ele>
        <time>2018-05-20T12:09:42Z</time>
      </trkpt>
      <trkpt lat="43.05165" lon="2.41512">
        <ele>350</ele>
        <time>2018-05-20T12:10:14Z</time>
      </trkpt>
      <trkpt lat="43.05142" lon="2.41521">
        <ele>351</ele>
        <time>2018-05-20T12:10:22Z</time>
      </trkpt>
      <trkpt lat="43.05119" lon="2.41513">
        <ele>353</ele>
        <time>2018-05-20T12:10:30Z</time>
      </trkpt>
      <trkpt lat="43.05074" lon="2.41492">
        <ele>358</ele>
        <time>2018-05-20T12:10:51Z</time>
      </trkpt>
      <trkpt lat="43.0498" lon="2.41521">
        <ele>359</ele>
        <time>2018-05-20T12:11:23Z</time>
      </trkpt>
      <trkpt lat="43.04957" lon="2.41522">
        <ele>360</ele>
        <time>2018-05-20T12:11:30Z</time>
      </trkpt>
      <trkpt lat="43.04935" lon="2.41535">
        <ele>359</ele>
        <time>2018-05-20T12:11:38Z</time>
      </trkpt>
      <trkpt lat="43.04922" lon="2.41567">
        <ele>358</ele>
        <time>2018-05-20T12:11:45Z</time>
      </trkpt>
      <trkpt lat="43.04884" lon="2.4161">
        <ele>356</ele>
        <time>2018-05-20T12:11:57Z</time>
      </trkpt>
      <trkpt lat="43.04871" lon="2.41639">
        <ele>355</ele>
        <time>2018-05-20T12:12:02Z</time>
      </trkpt>
      <trkpt lat="43.04874" lon="2.41671">
        <ele>355</ele>
        <time>2018-05-20T12:12:08Z</time>
      </trkpt>
      <trkpt lat="43.04848" lon="2.41761">
        <ele>355</ele>
        <time>2018-05-20T12:12:31Z</time>
      </trkpt>
      <trkpt lat="43.04827" lon="2.41853">
        <ele>360</ele>
        <time>2018-05-20T12:12:56Z</time>
      </trkpt>
      <trkpt lat="43.04763" lon="2.419">
        <ele>363</ele>
        <time>2018-05-20T12:13:22Z</time>
      </trkpt>
      <trkpt lat="43.04744" lon="2.41918">
        <ele>362</ele>
        <time>2018-05-20T12:13:32Z</time>
      </trkpt>
      <trkpt lat="43.04719" lon="2.41977">
        <ele>362</ele>
        <time>2018-05-20T12:13:47Z</time>
      </trkpt>
      <trkpt lat="43.04676" lon="2.42015">
        <ele>363</ele>
        <time>2018-05-20T12:13:59Z</time>
      </trkpt>
      <trkpt lat="43.0464" lon="2.42065">
        <ele>363</ele>
        <time>2018-05-20T12:14:09Z</time>
      </trkpt>
      <trkpt lat="43.04618" lon="2.42083">
        <ele>364</ele>
        <time>2018-05-20T12:14:15Z</time>
      </trkpt>
      <trkpt lat="43.04586" lon="2.42082">
        <ele>365</ele>
        <time>2018-05-20T12:14:20Z</time>
      </trkpt>
      <trkpt lat="43.04546" lon="2.4213">
        <ele>364</ele>
        <time>2018-05-20T12:14:30Z</time>
      </trkpt>
      <trkpt lat="43.04524" lon="2.42141">
        <ele>363</ele>
        <time>2018-05-20T12:14:35Z</time>
      </trkpt>
      <trkpt lat="43.04499" lon="2.42133">
        <ele>364</ele>
        <time>2018-05-20T12:14:41Z</time>
      </trkpt>
      <trkpt lat="43.04482" lon="2.42107">
        <ele>363</ele>
        <time>2018-05-20T12:14:48Z</time>
      </trkpt>
      <trkpt lat="43.04494" lon="2.42077">
        <ele>353</ele>
        <time>2018-05-20T12:19:24Z</time>
      </trkpt>
      <trkpt lat="43.04453" lon="2.42042">
        <ele>359</ele>
        <time>2018-05-20T12:19:45Z</time>
      </trkpt>
      <trkpt lat="43.04385" lon="2.42015">
        <ele>366</ele>
        <time>2018-05-20T12:20:07Z</time>
      </trkpt>
      <trkpt lat="43.04291" lon="2.4202">
        <ele>371</ele>
        <time>2018-05-20T12:20:40Z</time>
      </trkpt>
      <trkpt lat="43.04245" lon="2.42006">
        <ele>370</ele>
        <time>2018-05-20T12:20:57Z</time>
      </trkpt>
      <trkpt lat="43.0422" lon="2.42002">
        <ele>373</ele>
        <time>2018-05-20T12:21:06Z</time>
      </trkpt>
      <trkpt lat="43.04127" lon="2.42028">
        <ele>375</ele>
        <time>2018-05-20T12:21:43Z</time>
      </trkpt>
      <trkpt lat="43.04104" lon="2.42035">
        <ele>373</ele>
        <time>2018-05-20T12:21:50Z</time>
      </trkpt>
      <trkpt lat="43.04081" lon="2.42046">
        <ele>373</ele>
        <time>2018-05-20T12:21:59Z</time>
      </trkpt>
      <trkpt lat="43.0401" lon="2.42043">
        <ele>373</ele>
        <time>2018-05-20T12:22:23Z</time>
      </trkpt>
      <trkpt lat="43.03986" lon="2.42038">
        <ele>372</ele>
        <time>2018-05-20T12:22:32Z</time>
      </trkpt>
      <trkpt lat="43.03943" lon="2.42006">
        <ele>371</ele>
        <time>2018-05-20T12:22:49Z</time>
      </trkpt>
      <trkpt lat="43.03926" lon="2.41985">
        <ele>370</ele>
        <time>2018-05-20T12:22:58Z</time>
      </trkpt>
      <trkpt lat="43.03931" lon="2.41922">
        <ele>376</ele>
        <time>2018-05-20T12:23:15Z</time>
      </trkpt>
      <trkpt lat="43.03935" lon="2.41889">
        <ele>376</ele>
        <time>2018-05-20T12:23:23Z</time>
      </trkpt>
      <trkpt lat="43.03933" lon="2.41858">
        <ele>376</ele>
        <time>2018-05-20T12:23:31Z</time>
      </trkpt>
      <trkpt lat="43.03895" lon="2.41814">
        <ele>378</ele>
        <time>2018-05-20T12:23:49Z</time>
      </trkpt>
      <trkpt lat="43.03875" lon="2.41796">
        <ele>378</ele>
        <time>2018-05-20T12:23:56Z</time>
      </trkpt>
      <trkpt lat="43.03852" lon="2.41785">
        <ele>378</ele>
        <time>2018-05-20T12:24:08Z</time>
      </trkpt>
      <trkpt lat="43.03831" lon="2.41799">
        <ele>377</ele>
        <time>2018-05-20T12:24:18Z</time>
      </trkpt>
      <trkpt lat="43.03817" lon="2.41826">
        <ele>377</ele>
        <time>2018-05-20T12:24:27Z</time>
      </trkpt>
      <trkpt lat="43.03818" lon="2.41857">
        <ele>380</ele>
        <time>2018-05-20T12:24:36Z</time>
      </trkpt>
      <trkpt lat="43.03805" lon="2.41885">
        <ele>382</ele>
        <time>2018-05-20T12:24:45Z</time>
      </trkpt>
      <trkpt lat="43.03782" lon="2.41888">
        <ele>384</ele>
        <time>2018-05-20T12:24:53Z</time>
      </trkpt>
      <trkpt lat="43.03734" lon="2.41888">
        <ele>385</ele>
        <time>2018-05-20T12:25:10Z</time>
      </trkpt>
      <trkpt lat="43.03713" lon="2.41873">
        <ele>384</ele>
        <time>2018-05-20T12:25:21Z</time>
      </trkpt>
      <trkpt lat="43.03708" lon="2.4184">
        <ele>382</ele>
        <time>2018-05-20T12:25:30Z</time>
      </trkpt>
      <trkpt lat="43.03706" lon="2.41806">
        <ele>381</ele>
        <time>2018-05-20T12:25:39Z</time>
      </trkpt>
      <trkpt lat="43.03704" lon="2.41772">
        <ele>382</ele>
        <time>2018-05-20T12:25:48Z</time>
      </trkpt>
      <trkpt lat="43.03737" lon="2.41686">
        <ele>381</ele>
        <time>2018-05-20T12:26:13Z</time>
      </trkpt>
      <trkpt lat="43.03736" lon="2.41653">
        <ele>381</ele>
        <time>2018-05-20T12:26:22Z</time>
      </trkpt>
      <trkpt lat="43.03726" lon="2.41623">
        <ele>382</ele>
        <time>2018-05-20T12:26:30Z</time>
      </trkpt>
      <trkpt lat="43.03706" lon="2.41602">
        <ele>383</ele>
        <time>2018-05-20T12:26:39Z</time>
      </trkpt>
      <trkpt lat="43.03687" lon="2.41583">
        <ele>384</ele>
        <time>2018-05-20T12:26:47Z</time>
      </trkpt>
      <trkpt lat="43.03617" lon="2.41567">
        <ele>390</ele>
        <time>2018-05-20T12:27:14Z</time>
      </trkpt>
      <trkpt lat="43.03595" lon="2.41573">
        <ele>393</ele>
        <time>2018-05-20T12:27:23Z</time>
      </trkpt>
      <trkpt lat="43.03577" lon="2.41551">
        <ele>394</ele>
        <time>2018-05-20T12:27:33Z</time>
      </trkpt>
      <trkpt lat="43.03559" lon="2.41532">
        <ele>394</ele>
        <time>2018-05-20T12:27:43Z</time>
      </trkpt>
      <trkpt lat="43.03536" lon="2.41528">
        <ele>394</ele>
        <time>2018-05-20T12:27:51Z</time>
      </trkpt>
      <trkpt lat="43.0344" lon="2.41508">
        <ele>401</ele>
        <time>2018-05-20T12:28:28Z</time>
      </trkpt>
      <trkpt lat="43.03417" lon="2.41504">
        <ele>405</ele>
        <time>2018-05-20T12:28:38Z</time>
      </trkpt>
      <trkpt lat="43.03349" lon="2.41468">
        <ele>409</ele>
        <time>2018-05-20T12:29:11Z</time>
      </trkpt>
      <trkpt lat="43.03301" lon="2.41469">
        <ele>410</ele>
        <time>2018-05-20T12:29:35Z</time>
      </trkpt>
      <trkpt lat="43.0323" lon="2.41485">
        <ele>416</ele>
        <time>2018-05-20T12:30:05Z</time>
      </trkpt>
      <trkpt lat="43.03207" lon="2.41493">
        <ele>418</ele>
        <time>2018-05-20T12:30:18Z</time>
      </trkpt>
      <trkpt lat="43.03184" lon="2.41503">
        <ele>417</ele>
        <time>2018-05-20T12:30:29Z</time>
      </trkpt>
      <trkpt lat="43.03163" lon="2.41516">
        <ele>418</ele>
        <time>2018-05-20T12:30:42Z</time>
      </trkpt>
      <trkpt lat="43.03094" lon="2.41543">
        <ele>416</ele>
        <time>2018-05-20T12:31:13Z</time>
      </trkpt>
      <trkpt lat="43.03073" lon="2.41556">
        <ele>416</ele>
        <time>2018-05-20T12:31:21Z</time>
      </trkpt>
      <trkpt lat="43.0305" lon="2.41563">
        <ele>418</ele>
        <time>2018-05-20T12:31:33Z</time>
      </trkpt>
      <trkpt lat="43.03028" lon="2.41554">
        <ele>422</ele>
        <time>2018-05-20T12:31:49Z</time>
      </trkpt>
      <trkpt lat="43.03028" lon="2.41523">
        <ele>436</ele>
        <time>2018-05-20T12:36:48Z</time>
      </trkpt>
      <trkpt lat="43.03014" lon="2.41498">
        <ele>431</ele>
        <time>2018-05-20T12:37:04Z</time>
      </trkpt>
      <trkpt lat="43.03007" lon="2.41467">
        <ele>434</ele>
        <time>2018-05-20T12:37:22Z</time>
      </trkpt>
      <trkpt lat="43.03" lon="2.41437">
        <ele>434</ele>
        <time>2018-05-20T12:37:36Z</time>
      </trkpt>
      <trkpt lat="43.02985" lon="2.41412">
        <ele>434</ele>
        <time>2018-05-20T12:37:51Z</time>
      </trkpt>
      <trkpt lat="43.02981" lon="2.4138">
        <ele>435</ele>
        <time>2018-05-20T12:38:06Z</time>
      </trkpt>
      <trkpt lat="43.02972" lon="2.41352">
        <ele>437</ele>
        <time>2018-05-20T12:38:20Z</time>
      </trkpt>
      <trkpt lat="43.02956" lon="2.41326">
        <ele>441</ele>
        <time>2018-05-20T12:38:33Z</time>
      </trkpt>
      <trkpt lat="43.02938" lon="2.41268">
        <ele>445</ele>
        <time>2018-05-20T12:39:03Z</time>
      </trkpt>
      <trkpt lat="43.02929" lon="2.41237">
        <ele>444</ele>
        <time>2018-05-20T12:39:19Z</time>
      </trkpt>
      <trkpt lat="43.0291" lon="2.41179">
        <ele>445</ele>
        <time>2018-05-20T12:39:50Z</time>
      </trkpt>
      <trkpt lat="43.02886" lon="2.41125">
        <ele>451</ele>
        <time>2018-05-20T12:40:22Z</time>
      </trkpt>
      <trkpt lat="43.02834" lon="2.41059">
        <ele>465</ele>
        <time>2018-05-20T12:41:04Z</time>
      </trkpt>
      <trkpt lat="43.02798" lon="2.41018">
        <ele>468</ele>
        <time>2018-05-20T12:41:30Z</time>
      </trkpt>
      <trkpt lat="43.02776" lon="2.41007">
        <ele>467</ele>
        <time>2018-05-20T12:41:44Z</time>
      </trkpt>
      <trkpt lat="43.0273" lon="2.41011">
        <ele>468</ele>
        <time>2018-05-20T12:42:14Z</time>
      </trkpt>
      <trkpt lat="43.02671" lon="2.41061">
        <ele>471</ele>
        <time>2018-05-20T12:42:53Z</time>
      </trkpt>
      <trkpt lat="43.02649" lon="2.41074">
        <ele>473</ele>
        <time>2018-05-20T12:43:07Z</time>
      </trkpt>
      <trkpt lat="43.02625" lon="2.41073">
        <ele>475</ele>
        <time>2018-05-20T12:43:17Z</time>
      </trkpt>
      <trkpt lat="43.02603" lon="2.41063">
        <ele>477</ele>
        <time>2018-05-20T12:43:34Z</time>
      </trkpt>
      <trkpt lat="43.0261" lon="2.41033">
        <ele>478</ele>
        <time>2018-05-20T12:43:48Z</time>
      </trkpt>
      <trkpt lat="43.02625" lon="2.41008">
        <ele>480</ele>
        <time>2018-05-20T12:44:02Z</time>
      </trkpt>
      <trkpt lat="43.02637" lon="2.4098">
        <ele>482</ele>
        <time>2018-05-20T12:44:19Z</time>
      </trkpt>
      <trkpt lat="43.0264" lon="2.40948">
        <ele>481</ele>
        <time>2018-05-20T12:44:35Z</time>
      </trkpt>
      <trkpt lat="43.02655" lon="2.40925">
        <ele>481</ele>
        <time>2018-05-20T12:44:50Z</time>
      </trkpt>
      <trkpt lat="43.02678" lon="2.40923">
        <ele>482</ele>
        <time>2018-05-20T12:45:01Z</time>
      </trkpt>
      <trkpt lat="43.02702" lon="2.40925">
        <ele>485</ele>
        <time>2018-05-20T12:45:11Z</time>
      </trkpt>
      <trkpt lat="43.02742" lon="2.40893">
        <ele>486</ele>
        <time>2018-05-20T12:45:38Z</time>
      </trkpt>
      <trkpt lat="43.02788" lon="2.4088">
        <ele>488</ele>
        <time>2018-05-20T12:46:08Z</time>
      </trkpt>
      <trkpt lat="43.02808" lon="2.40865">
        <ele>491</ele>
        <time>2018-05-20T12:46:22Z</time>
      </trkpt>
      <trkpt lat="43.02831" lon="2.40873">
        <ele>493</ele>
        <time>2018-05-20T12:46:40Z</time>
      </trkpt>
      <trkpt lat="43.02871" lon="2.40906">
        <ele>497</ele>
        <time>2018-05-20T12:47:06Z</time>
      </trkpt>
      <trkpt lat="43.02894" lon="2.40897">
        <ele>501</ele>
        <time>2018-05-20T12:47:21Z</time>
      </trkpt>
      <trkpt lat="43.02916" lon="2.40842">
        <ele>503</ele>
        <time>2018-05-20T12:47:50Z</time>
      </trkpt>
      <trkpt lat="43.0292" lon="2.40811">
        <ele>502</ele>
        <time>2018-05-20T12:48:06Z</time>
      </trkpt>
      <trkpt lat="43.02935" lon="2.40786">
        <ele>503</ele>
        <time>2018-05-20T12:48:28Z</time>
      </trkpt>
      <trkpt lat="43.02957" lon="2.40775">
        <ele>507</ele>
        <time>2018-05-20T12:49:20Z</time>
      </trkpt>
      <trkpt lat="43.02955" lon="2.40743">
        <ele>512</ele>
        <time>2018-05-20T12:49:43Z</time>
      </trkpt>
      <trkpt lat="43.02978" lon="2.4074">
        <ele>515</ele>
        <time>2018-05-20T12:50:01Z</time>
      </trkpt>
      <trkpt lat="43.03012" lon="2.40784">
        <ele>522</ele>
        <time>2018-05-20T12:50:23Z</time>
      </trkpt>
      <trkpt lat="43.03024" lon="2.40812">
        <ele>522</ele>
        <time>2018-05-20T12:50:33Z</time>
      </trkpt>
      <trkpt lat="43.03037" lon="2.40839">
        <ele>521</ele>
        <time>2018-05-20T12:50:45Z</time>
      </trkpt>
      <trkpt lat="43.03041" lon="2.40809">
        <ele>520</ele>
        <time>2018-05-20T12:51:02Z</time>
      </trkpt>
      <trkpt lat="43.03019" lon="2.40797">
        <ele>519</ele>
        <time>2018-05-20T12:51:15Z</time>
      </trkpt>
      <trkpt lat="43.03006" lon="2.4077">
        <ele>518</ele>
        <time>2018-05-20T12:51:29Z</time>
      </trkpt>
      <trkpt lat="43.02983" lon="2.40715">
        <ele>518</ele>
        <time>2018-05-20T12:51:59Z</time>
      </trkpt>
      <trkpt lat="43.02962" lon="2.40704">
        <ele>520</ele>
        <time>2018-05-20T12:52:12Z</time>
      </trkpt>
      <trkpt lat="43.02943" lon="2.40722">
        <ele>522</ele>
        <time>2018-05-20T12:52:22Z</time>
      </trkpt>
      <trkpt lat="43.02939" lon="2.40754">
        <ele>528</ele>
        <time>2018-05-20T12:52:34Z</time>
      </trkpt>
      <trkpt lat="43.02901" lon="2.40836">
        <ele>540</ele>
        <time>2018-05-20T12:53:15Z</time>
      </trkpt>
      <trkpt lat="43.02878" lon="2.40843">
        <ele>540</ele>
        <time>2018-05-20T12:53:29Z</time>
      </trkpt>
      <trkpt lat="43.02857" lon="2.40829">
        <ele>541</ele>
        <time>2018-05-20T12:53:39Z</time>
      </trkpt>
      <trkpt lat="43.02841" lon="2.40805">
        <ele>542</ele>
        <time>2018-05-20T12:53:53Z</time>
      </trkpt>
      <trkpt lat="43.0282" lon="2.40791">
        <ele>544</ele>
        <time>2018-05-20T12:54:10Z</time>
      </trkpt>
      <trkpt lat="43.02752" lon="2.4082">
        <ele>544</ele>
        <time>2018-05-20T12:54:44Z</time>
      </trkpt>
      <trkpt lat="43.02727" lon="2.40819">
        <ele>544</ele>
        <time>2018-05-20T12:54:57Z</time>
      </trkpt>
      <trkpt lat="43.02704" lon="2.40817">
        <ele>545</ele>
        <time>2018-05-20T12:55:08Z</time>
      </trkpt>
      <trkpt lat="43.02688" lon="2.40795">
        <ele>544</ele>
        <time>2018-05-20T12:55:18Z</time>
      </trkpt>
      <trkpt lat="43.02666" lon="2.40789">
        <ele>546</ele>
        <time>2018-05-20T12:55:33Z</time>
      </trkpt>
      <trkpt lat="43.02644" lon="2.40803">
        <ele>548</ele>
        <time>2018-05-20T12:55:43Z</time>
      </trkpt>
      <trkpt lat="43.02626" lon="2.40824">
        <ele>550</ele>
        <time>2018-05-20T12:55:56Z</time>
      </trkpt>
      <trkpt lat="43.02606" lon="2.40841">
        <ele>552</ele>
        <time>2018-05-20T12:56:06Z</time>
      </trkpt>
      <trkpt lat="43.02583" lon="2.40844">
        <ele>554</ele>
        <time>2018-05-20T12:56:16Z</time>
      </trkpt>
      <trkpt lat="43.02571" lon="2.40815">
        <ele>555</ele>
        <time>2018-05-20T12:56:28Z</time>
      </trkpt>
      <trkpt lat="43.02559" lon="2.40754">
        <ele>558</ele>
        <time>2018-05-20T12:56:50Z</time>
      </trkpt>
      <trkpt lat="43.02558" lon="2.40722">
        <ele>558</ele>
        <time>2018-05-20T12:57:01Z</time>
      </trkpt>
      <trkpt lat="43.02524" lon="2.40678">
        <ele>562</ele>
        <time>2018-05-20T12:57:24Z</time>
      </trkpt>
      <trkpt lat="43.02492" lon="2.40555">
        <ele>567</ele>
        <time>2018-05-20T12:58:03Z</time>
      </trkpt>
      <trkpt lat="43.02487" lon="2.40524">
        <ele>569</ele>
        <time>2018-05-20T12:58:13Z</time>
      </trkpt>
      <trkpt lat="43.02487" lon="2.40494">
        <ele>569</ele>
        <time>2018-05-20T12:58:23Z</time>
      </trkpt>
      <trkpt lat="43.02492" lon="2.40463">
        <ele>568</ele>
        <time>2018-05-20T12:58:34Z</time>
      </trkpt>
      <trkpt lat="43.02492" lon="2.40429">
        <ele>568</ele>
        <time>2018-05-20T12:58:44Z</time>
      </trkpt>
      <trkpt lat="43.0248" lon="2.404">
        <ele>570</ele>
        <time>2018-05-20T12:58:55Z</time>
      </trkpt>
      <trkpt lat="43.02469" lon="2.40373">
        <ele>572</ele>
        <time>2018-05-20T12:59:05Z</time>
      </trkpt>
      <trkpt lat="43.02455" lon="2.40347">
        <ele>573</ele>
        <time>2018-05-20T12:59:16Z</time>
      </trkpt>
      <trkpt lat="43.02436" lon="2.4033">
        <ele>574</ele>
        <time>2018-05-20T12:59:27Z</time>
      </trkpt>
      <trkpt lat="43.02428" lon="2.40301">
        <ele>574</ele>
        <time>2018-05-20T12:59:39Z</time>
      </trkpt>
      <trkpt lat="43.02398" lon="2.40215">
        <ele>585</ele>
        <time>2018-05-20T13:00:11Z</time>
      </trkpt>
      <trkpt lat="43.02395" lon="2.40152">
        <ele>588</ele>
        <time>2018-05-20T13:00:33Z</time>
      </trkpt>
      <trkpt lat="43.02397" lon="2.4012">
        <ele>589</ele>
        <time>2018-05-20T13:00:45Z</time>
      </trkpt>
      <trkpt lat="43.02391" lon="2.40089">
        <ele>588</ele>
        <time>2018-05-20T13:01:40Z</time>
      </trkpt>
      <trkpt lat="43.0238" lon="2.4006">
        <ele>588</ele>
        <time>2018-05-20T13:01:55Z</time>
      </trkpt>
      <trkpt lat="43.02372" lon="2.4003">
        <ele>585</ele>
        <time>2018-05-20T13:02:09Z</time>
      </trkpt>
      <trkpt lat="43.02356" lon="2.40007">
        <ele>585</ele>
        <time>2018-05-20T13:02:22Z</time>
      </trkpt>
      <trkpt lat="43.02338" lon="2.39985">
        <ele>588</ele>
        <time>2018-05-20T13:02:36Z</time>
      </trkpt>
      <trkpt lat="43.02316" lon="2.39972">
        <ele>592</ele>
        <time>2018-05-20T13:02:50Z</time>
      </trkpt>
      <trkpt lat="43.02299" lon="2.39952">
        <ele>595</ele>
        <time>2018-05-20T13:03:03Z</time>
      </trkpt>
      <trkpt lat="43.02292" lon="2.39922">
        <ele>597</ele>
        <time>2018-05-20T13:03:19Z</time>
      </trkpt>
      <trkpt lat="43.0229" lon="2.39922">
        <ele>604</ele>
        <time>2018-05-20T13:09:15Z</time>
      </trkpt>
      <trkpt lat="43.02289" lon="2.39886">
        <ele>599</ele>
        <time>2018-05-20T13:09:24Z</time>
      </trkpt>
      <trkpt lat="43.02308" lon="2.39754">
        <ele>599</ele>
        <time>2018-05-20T13:09:41Z</time>
      </trkpt>
      <trkpt lat="43.02306" lon="2.3972">
        <ele>598</ele>
        <time>2018-05-20T13:09:47Z</time>
      </trkpt>
      <trkpt lat="43.02285" lon="2.39734">
        <ele>597</ele>
        <time>2018-05-20T13:09:53Z</time>
      </trkpt>
      <trkpt lat="43.02277" lon="2.39766">
        <ele>595</ele>
        <time>2018-05-20T13:09:58Z</time>
      </trkpt>
      <trkpt lat="43.02249" lon="2.39772">
        <ele>592</ele>
        <time>2018-05-20T13:10:03Z</time>
      </trkpt>
      <trkpt lat="43.02175" lon="2.39536">
        <ele>573</ele>
        <time>2018-05-20T13:10:30Z</time>
      </trkpt>
      <trkpt lat="43.02157" lon="2.39392">
        <ele>567</ele>
        <time>2018-05-20T13:10:46Z</time>
      </trkpt>
      <trkpt lat="43.02121" lon="2.39338">
        <ele>563</ele>
        <time>2018-05-20T13:10:56Z</time>
      </trkpt>
      <trkpt lat="43.02098" lon="2.39329">
        <ele>564</ele>
        <time>2018-05-20T13:11:02Z</time>
      </trkpt>
      <trkpt lat="43.02076" lon="2.39332">
        <ele>555</ele>
        <time>2018-05-20T13:12:29Z</time>
      </trkpt>
      <trkpt lat="43.02059" lon="2.39309">
        <ele>563</ele>
        <time>2018-05-20T13:12:55Z</time>
      </trkpt>
      <trkpt lat="43.02047" lon="2.39281">
        <ele>564</ele>
        <time>2018-05-20T13:13:02Z</time>
      </trkpt>
      <trkpt lat="43.02055" lon="2.39218">
        <ele>561</ele>
        <time>2018-05-20T13:13:17Z</time>
      </trkpt>
      <trkpt lat="43.0204" lon="2.39193">
        <ele>556</ele>
        <time>2018-05-20T13:13:47Z</time>
      </trkpt>
      <trkpt lat="43.02018" lon="2.39179">
        <ele>554</ele>
        <time>2018-05-20T13:13:53Z</time>
      </trkpt>
      <trkpt lat="43.02018" lon="2.39146">
        <ele>549</ele>
        <time>2018-05-20T13:14:05Z</time>
      </trkpt>
      <trkpt lat="43.0208" lon="2.39092">
        <ele>537</ele>
        <time>2018-05-20T13:14:21Z</time>
      </trkpt>
      <trkpt lat="43.021" lon="2.39074">
        <ele>536</ele>
        <time>2018-05-20T13:14:28Z</time>
      </trkpt>
      <trkpt lat="43.0212" lon="2.39054">
        <ele>534</ele>
        <time>2018-05-20T13:17:16Z</time>
      </trkpt>
      <trkpt lat="43.02137" lon="2.39035">
        <ele>527</ele>
        <time>2018-05-20T13:18:57Z</time>
      </trkpt>
      <trkpt lat="43.02156" lon="2.39013">
        <ele>529</ele>
        <time>2018-05-20T13:19:05Z</time>
      </trkpt>
      <trkpt lat="43.02168" lon="2.38981">
        <ele>530</ele>
        <time>2018-05-20T13:19:12Z</time>
      </trkpt>
      <trkpt lat="43.02202" lon="2.38934">
        <ele>532</ele>
        <time>2018-05-20T13:19:23Z</time>
      </trkpt>
      <trkpt lat="43.02317" lon="2.3881">
        <ele>528</ele>
        <time>2018-05-20T13:19:53Z</time>
      </trkpt>
      <trkpt lat="43.02345" lon="2.3876">
        <ele>530</ele>
        <time>2018-05-20T13:20:02Z</time>
      </trkpt>
      <trkpt lat="43.02366" lon="2.38739">
        <ele>530</ele>
        <time>2018-05-20T13:20:07Z</time>
      </trkpt>
      <trkpt lat="43.02389" lon="2.38736">
        <ele>531</ele>
        <time>2018-05-20T13:20:12Z</time>
      </trkpt>
      <trkpt lat="43.0241" lon="2.38719">
        <ele>530</ele>
        <time>2018-05-20T13:20:43Z</time>
      </trkpt>
      <trkpt lat="43.02427" lon="2.38695">
        <ele>528</ele>
        <time>2018-05-20T13:20:48Z</time>
      </trkpt>
      <trkpt lat="43.02445" lon="2.38675">
        <ele>528</ele>
        <time>2018-05-20T13:20:53Z</time>
      </trkpt>
      <trkpt lat="43.02466" lon="2.38661">
        <ele>527</ele>
        <time>2018-05-20T13:20:59Z</time>
      </trkpt>
      <trkpt lat="43.02485" lon="2.38641">
        <ele>525</ele>
        <time>2018-05-20T13:21:04Z</time>
      </trkpt>
      <trkpt lat="43.02497" lon="2.38609">
        <ele>521</ele>
        <time>2018-05-20T13:21:09Z</time>
      </trkpt>
      <trkpt lat="43.02496" lon="2.38572">
        <ele>519</ele>
        <time>2018-05-20T13:21:14Z</time>
      </trkpt>
      <trkpt lat="43.0251" lon="2.38546">
        <ele>519</ele>
        <time>2018-05-20T13:21:18Z</time>
      </trkpt>
      <trkpt lat="43.02531" lon="2.38528">
        <ele>519</ele>
        <time>2018-05-20T13:21:23Z</time>
      </trkpt>
      <trkpt lat="43.02532" lon="2.38493">
        <ele>508</ele>
        <time>2018-05-20T14:04:50Z</time>
      </trkpt>
      <trkpt lat="43.02516" lon="2.38389">
        <ele>505</ele>
        <time>2018-05-20T14:05:01Z</time>
      </trkpt>
      <trkpt lat="43.02516" lon="2.38358">
        <ele>504</ele>
        <time>2018-05-20T14:05:04Z</time>
      </trkpt>
      <trkpt lat="43.02532" lon="2.38246">
        <ele>499</ele>
        <time>2018-05-20T14:05:16Z</time>
      </trkpt>
      <trkpt lat="43.02542" lon="2.3821">
        <ele>498</ele>
        <time>2018-05-20T14:05:20Z</time>
      </trkpt>
      <trkpt lat="43.02566" lon="2.3819">
        <ele>497</ele>
        <time>2018-05-20T14:05:24Z</time>
      </trkpt>
      <trkpt lat="43.02572" lon="2.38155">
        <ele>496</ele>
        <time>2018-05-20T14:05:28Z</time>
      </trkpt>
      <trkpt lat="43.02529" lon="2.38066">
        <ele>490</ele>
        <time>2018-05-20T14:05:38Z</time>
      </trkpt>
      <trkpt lat="43.02527" lon="2.38034">
        <ele>489</ele>
        <time>2018-05-20T14:05:42Z</time>
      </trkpt>
      <trkpt lat="43.02541" lon="2.38008">
        <ele>488</ele>
        <time>2018-05-20T14:05:47Z</time>
      </trkpt>
      <trkpt lat="43.02469" lon="2.37923">
        <ele>486</ele>
        <time>2018-05-20T14:06:06Z</time>
      </trkpt>
      <trkpt lat="43.02438" lon="2.37868">
        <ele>487</ele>
        <time>2018-05-20T14:06:18Z</time>
      </trkpt>
      <trkpt lat="43.02421" lon="2.37841">
        <ele>487</ele>
        <time>2018-05-20T14:06:25Z</time>
      </trkpt>
      <trkpt lat="43.0235" lon="2.37829">
        <ele>484</ele>
        <time>2018-05-20T14:06:50Z</time>
      </trkpt>
      <trkpt lat="43.02327" lon="2.37826">
        <ele>485</ele>
        <time>2018-05-20T14:07:01Z</time>
      </trkpt>
      <trkpt lat="43.02256" lon="2.37831">
        <ele>485</ele>
        <time>2018-05-20T14:07:26Z</time>
      </trkpt>
      <trkpt lat="43.02233" lon="2.37845">
        <ele>485</ele>
        <time>2018-05-20T14:07:35Z</time>
      </trkpt>
      <trkpt lat="43.02198" lon="2.37887">
        <ele>481</ele>
        <time>2018-05-20T14:07:52Z</time>
      </trkpt>
      <trkpt lat="43.0217" lon="2.3794">
        <ele>483</ele>
        <time>2018-05-20T14:08:11Z</time>
      </trkpt>
      <trkpt lat="43.02154" lon="2.37963">
        <ele>487</ele>
        <time>2018-05-20T14:08:21Z</time>
      </trkpt>
      <trkpt lat="43.02137" lon="2.37985">
        <ele>487</ele>
        <time>2018-05-20T14:08:32Z</time>
      </trkpt>
      <trkpt lat="43.02118" lon="2.38003">
        <ele>485</ele>
        <time>2018-05-20T14:08:43Z</time>
      </trkpt>
      <trkpt lat="43.02098" lon="2.38022">
        <ele>487</ele>
        <time>2018-05-20T14:08:56Z</time>
      </trkpt>
      <trkpt lat="43.02078" lon="2.38038">
        <ele>488</ele>
        <time>2018-05-20T14:09:06Z</time>
      </trkpt>
      <trkpt lat="43.0201" lon="2.38011">
        <ele>495</ele>
        <time>2018-05-20T14:09:39Z</time>
      </trkpt>
      <trkpt lat="43.01964" lon="2.37998">
        <ele>505</ele>
        <time>2018-05-20T14:10:02Z</time>
      </trkpt>
      <trkpt lat="43.01943" lon="2.38013">
        <ele>509</ele>
        <time>2018-05-20T14:10:13Z</time>
      </trkpt>
      <trkpt lat="43.01924" lon="2.3803">
        <ele>511</ele>
        <time>2018-05-20T14:10:24Z</time>
      </trkpt>
      <trkpt lat="43.01902" lon="2.38024">
        <ele>513</ele>
        <time>2018-05-20T14:10:35Z</time>
      </trkpt>
      <trkpt lat="43.01883" lon="2.38004">
        <ele>513</ele>
        <time>2018-05-20T14:10:47Z</time>
      </trkpt>
      <trkpt lat="43.0186" lon="2.37996">
        <ele>515</ele>
        <time>2018-05-20T14:11:00Z</time>
      </trkpt>
      <trkpt lat="43.01796" lon="2.37955">
        <ele>519</ele>
        <time>2018-05-20T14:11:36Z</time>
      </trkpt>
      <trkpt lat="43.01725" lon="2.37945">
        <ele>522</ele>
        <time>2018-05-20T14:12:16Z</time>
      </trkpt>
      <trkpt lat="43.01701" lon="2.3794">
        <ele>524</ele>
        <time>2018-05-20T14:12:29Z</time>
      </trkpt>
      <trkpt lat="43.01679" lon="2.37928">
        <ele>526</ele>
        <time>2018-05-20T14:12:42Z</time>
      </trkpt>
      <trkpt lat="43.01667" lon="2.379">
        <ele>530</ele>
        <time>2018-05-20T14:12:55Z</time>
      </trkpt>
      <trkpt lat="43.01662" lon="2.3787">
        <ele>530</ele>
        <time>2018-05-20T14:13:07Z</time>
      </trkpt>
      <trkpt lat="43.01657" lon="2.3784">
        <ele>528</ele>
        <time>2018-05-20T14:13:20Z</time>
      </trkpt>
      <trkpt lat="43.01646" lon="2.37811">
        <ele>527</ele>
        <time>2018-05-20T14:13:34Z</time>
      </trkpt>
      <trkpt lat="43.01628" lon="2.3779">
        <ele>525</ele>
        <time>2018-05-20T14:13:46Z</time>
      </trkpt>
      <trkpt lat="43.01582" lon="2.37779">
        <ele>526</ele>
        <time>2018-05-20T14:14:11Z</time>
      </trkpt>
      <trkpt lat="43.01558" lon="2.37778">
        <ele>524</ele>
        <time>2018-05-20T14:14:25Z</time>
      </trkpt>
      <trkpt lat="43.01535" lon="2.37775">
        <ele>526</ele>
        <time>2018-05-20T14:14:39Z</time>
      </trkpt>
      <trkpt lat="43.01489" lon="2.37779">
        <ele>525</ele>
        <time>2018-05-20T14:15:04Z</time>
      </trkpt>
      <trkpt lat="43.01467" lon="2.3778">
        <ele>529</ele>
        <time>2018-05-20T14:15:18Z</time>
      </trkpt>
      <trkpt lat="43.01442" lon="2.3778">
        <ele>530</ele>
        <time>2018-05-20T14:15:31Z</time>
      </trkpt>
      <trkpt lat="43.01395" lon="2.37779">
        <ele>527</ele>
        <time>2018-05-20T14:15:57Z</time>
      </trkpt>
      <trkpt lat="43.01349" lon="2.37768">
        <ele>520</ele>
        <time>2018-05-20T14:16:24Z</time>
      </trkpt>
      <trkpt lat="43.01325" lon="2.37772">
        <ele>519</ele>
        <time>2018-05-20T14:16:36Z</time>
      </trkpt>
      <trkpt lat="43.01303" lon="2.37779">
        <ele>521</ele>
        <time>2018-05-20T14:16:48Z</time>
      </trkpt>
      <trkpt lat="43.01279" lon="2.37776">
        <ele>522</ele>
        <time>2018-05-20T14:17:02Z</time>
      </trkpt>
      <trkpt lat="43.01255" lon="2.37767">
        <ele>526</ele>
        <time>2018-05-20T14:17:14Z</time>
      </trkpt>
      <trkpt lat="43.01248" lon="2.37735">
        <ele>531</ele>
        <time>2018-05-20T14:17:28Z</time>
      </trkpt>
      <trkpt lat="43.01249" lon="2.37703">
        <ele>533</ele>
        <time>2018-05-20T14:17:40Z</time>
      </trkpt>
      <trkpt lat="43.01251" lon="2.37672">
        <ele>534</ele>
        <time>2018-05-20T14:17:52Z</time>
      </trkpt>
      <trkpt lat="43.01251" lon="2.37639">
        <ele>537</ele>
        <time>2018-05-20T14:18:06Z</time>
      </trkpt>
      <trkpt lat="43.01244" lon="2.37608">
        <ele>539</ele>
        <time>2018-05-20T14:18:19Z</time>
      </trkpt>
      <trkpt lat="43.01226" lon="2.37585">
        <ele>542</ele>
        <time>2018-05-20T14:18:31Z</time>
      </trkpt>
      <trkpt lat="43.01205" lon="2.37572">
        <ele>542</ele>
        <time>2018-05-20T14:18:45Z</time>
      </trkpt>
      <trkpt lat="43.01158" lon="2.37565">
        <ele>545</ele>
        <time>2018-05-20T14:19:07Z</time>
      </trkpt>
      <trkpt lat="43.01136" lon="2.37554">
        <ele>547</ele>
        <time>2018-05-20T14:19:19Z</time>
      </trkpt>
      <trkpt lat="43.01104" lon="2.3751">
        <ele>549</ele>
        <time>2018-05-20T14:19:41Z</time>
      </trkpt>
      <trkpt lat="43.01081" lon="2.37419">
        <ele>554</ele>
        <time>2018-05-20T14:20:17Z</time>
      </trkpt>
      <trkpt lat="43.0106" lon="2.37361">
        <ele>560</ele>
        <time>2018-05-20T14:20:38Z</time>
      </trkpt>
      <trkpt lat="43.01046" lon="2.37337">
        <ele>562</ele>
        <time>2018-05-20T14:20:48Z</time>
      </trkpt>
      <trkpt lat="43.00986" lon="2.3728">
        <ele>565</ele>
        <time>2018-05-20T14:21:18Z</time>
      </trkpt>
      <trkpt lat="43.00964" lon="2.37269">
        <ele>566</ele>
        <time>2018-05-20T14:21:26Z</time>
      </trkpt>
      <trkpt lat="43.00946" lon="2.37247">
        <ele>567</ele>
        <time>2018-05-20T14:21:33Z</time>
      </trkpt>
      <trkpt lat="43.0092" lon="2.37196">
        <ele>572</ele>
        <time>2018-05-20T14:21:46Z</time>
      </trkpt>
      <trkpt lat="43.00884" lon="2.37077">
        <ele>571</ele>
        <time>2018-05-20T14:22:11Z</time>
      </trkpt>
      <trkpt lat="43.00868" lon="2.37052">
        <ele>571</ele>
        <time>2018-05-20T14:22:18Z</time>
      </trkpt>
      <trkpt lat="43.00782" lon="2.36997">
        <ele>574</ele>
        <time>2018-05-20T14:22:45Z</time>
      </trkpt>
      <trkpt lat="43.00734" lon="2.36989">
        <ele>575</ele>
        <time>2018-05-20T14:22:58Z</time>
      </trkpt>
      <trkpt lat="43.00685" lon="2.37002">
        <ele>575</ele>
        <time>2018-05-20T14:23:12Z</time>
      </trkpt>
      <trkpt lat="43.00636" lon="2.37007">
        <ele>572</ele>
        <time>2018-05-20T14:23:26Z</time>
      </trkpt>
      <trkpt lat="43.0061" lon="2.37013">
        <ele>571</ele>
        <time>2018-05-20T14:23:33Z</time>
      </trkpt>
      <trkpt lat="43.00498" lon="2.37088">
        <ele>574</ele>
        <time>2018-05-20T14:24:09Z</time>
      </trkpt>
      <trkpt lat="43.00475" lon="2.37102">
        <ele>574</ele>
        <time>2018-05-20T14:24:17Z</time>
      </trkpt>
      <trkpt lat="43.00459" lon="2.37124">
        <ele>574</ele>
        <time>2018-05-20T14:24:25Z</time>
      </trkpt>
      <trkpt lat="43.00451" lon="2.37156">
        <ele>573</ele>
        <time>2018-05-20T14:24:35Z</time>
      </trkpt>
      <trkpt lat="43.00435" lon="2.37178">
        <ele>572</ele>
        <time>2018-05-20T14:24:43Z</time>
      </trkpt>
      <trkpt lat="43.00414" lon="2.37194">
        <ele>572</ele>
        <time>2018-05-20T14:24:51Z</time>
      </trkpt>
      <trkpt lat="43.00321" lon="2.3723">
        <ele>575</ele>
        <time>2018-05-20T14:25:21Z</time>
      </trkpt>
      <trkpt lat="43.00297" lon="2.37236">
        <ele>574</ele>
        <time>2018-05-20T14:25:29Z</time>
      </trkpt>
      <trkpt lat="43.0023" lon="2.37267">
        <ele>574</ele>
        <time>2018-05-20T14:25:50Z</time>
      </trkpt>
      <trkpt lat="43.00184" lon="2.3728">
        <ele>574</ele>
        <time>2018-05-20T14:26:09Z</time>
      </trkpt>
      <trkpt lat="43.00114" lon="2.37312">
        <ele>581</ele>
        <time>2018-05-20T14:26:34Z</time>
      </trkpt>
      <trkpt lat="43.0002" lon="2.37323">
        <ele>583</ele>
        <time>2018-05-20T14:27:07Z</time>
      </trkpt>
      <trkpt lat="42.99945" lon="2.37236">
        <ele>587</ele>
        <time>2018-05-20T14:27:37Z</time>
      </trkpt>
      <trkpt lat="42.99923" lon="2.37219">
        <ele>586</ele>
        <time>2018-05-20T14:27:45Z</time>
      </trkpt>
      <trkpt lat="42.99907" lon="2.37156">
        <ele>589</ele>
        <time>2018-05-20T14:28:01Z</time>
      </trkpt>
      <trkpt lat="42.99891" lon="2.37131">
        <ele>589</ele>
        <time>2018-05-20T14:28:10Z</time>
      </trkpt>
      <trkpt lat="42.99868" lon="2.37125">
        <ele>589</ele>
        <time>2018-05-20T14:28:17Z</time>
      </trkpt>
      <trkpt lat="42.99832" lon="2.37166">
        <ele>590</ele>
        <time>2018-05-20T14:28:31Z</time>
      </trkpt>
      <trkpt lat="42.99773" lon="2.37275">
        <ele>592</ele>
        <time>2018-05-20T14:29:05Z</time>
      </trkpt>
      <trkpt lat="42.99744" lon="2.37365">
        <ele>598</ele>
        <time>2018-05-20T14:29:29Z</time>
      </trkpt>
      <trkpt lat="42.99734" lon="2.37397">
        <ele>598</ele>
        <time>2018-05-20T14:29:37Z</time>
      </trkpt>
      <trkpt lat="42.99716" lon="2.37417">
        <ele>599</ele>
        <time>2018-05-20T14:29:45Z</time>
      </trkpt>
      <trkpt lat="42.9967" lon="2.37432">
        <ele>601</ele>
        <time>2018-05-20T14:30:01Z</time>
      </trkpt>
      <trkpt lat="42.99602" lon="2.37459">
        <ele>601</ele>
        <time>2018-05-20T14:30:28Z</time>
      </trkpt>
      <trkpt lat="42.9958" lon="2.37452">
        <ele>602</ele>
        <time>2018-05-20T14:30:37Z</time>
      </trkpt>
      <trkpt lat="42.99557" lon="2.37438">
        <ele>603</ele>
        <time>2018-05-20T14:30:46Z</time>
      </trkpt>
      <trkpt lat="42.99535" lon="2.37425">
        <ele>604</ele>
        <time>2018-05-20T14:30:55Z</time>
      </trkpt>
      <trkpt lat="42.99512" lon="2.37418">
        <ele>606</ele>
        <time>2018-05-20T14:31:03Z</time>
      </trkpt>
      <trkpt lat="42.99489" lon="2.37419">
        <ele>609</ele>
        <time>2018-05-20T14:31:11Z</time>
      </trkpt>
      <trkpt lat="42.99441" lon="2.37433">
        <ele>614</ele>
        <time>2018-05-20T14:31:29Z</time>
      </trkpt>
      <trkpt lat="42.99418" lon="2.37437">
        <ele>615</ele>
        <time>2018-05-20T14:31:38Z</time>
      </trkpt>
      <trkpt lat="42.99394" lon="2.37429">
        <ele>614</ele>
        <time>2018-05-20T14:31:47Z</time>
      </trkpt>
      <trkpt lat="42.99307" lon="2.37379">
        <ele>605</ele>
        <time>2018-05-20T14:32:22Z</time>
      </trkpt>
      <trkpt lat="42.99226" lon="2.37306">
        <ele>605</ele>
        <time>2018-05-20T14:32:57Z</time>
      </trkpt>
      <trkpt lat="42.99206" lon="2.37286">
        <ele>607</ele>
        <time>2018-05-20T14:33:05Z</time>
      </trkpt>
      <trkpt lat="42.99159" lon="2.37289">
        <ele>613</ele>
        <time>2018-05-20T14:33:22Z</time>
      </trkpt>
      <trkpt lat="42.99136" lon="2.37282">
        <ele>615</ele>
        <time>2018-05-20T14:33:30Z</time>
      </trkpt>
      <trkpt lat="42.99123" lon="2.37257">
        <ele>615</ele>
        <time>2018-05-20T14:33:39Z</time>
      </trkpt>
      <trkpt lat="42.99111" lon="2.37229">
        <ele>615</ele>
        <time>2018-05-20T14:33:50Z</time>
      </trkpt>
      <trkpt lat="42.99096" lon="2.37205">
        <ele>615</ele>
        <time>2018-05-20T14:33:59Z</time>
      </trkpt>
      <trkpt lat="42.99074" lon="2.37188">
        <ele>615</ele>
        <time>2018-05-20T14:34:07Z</time>
      </trkpt>
      <trkpt lat="42.99003" lon="2.3717">
        <ele>620</ele>
        <time>2018-05-20T14:34:34Z</time>
      </trkpt>
      <trkpt lat="42.98958" lon="2.3718">
        <ele>620</ele>
        <time>2018-05-20T14:34:51Z</time>
      </trkpt>
      <trkpt lat="42.98912" lon="2.37199">
        <ele>626</ele>
        <time>2018-05-20T14:35:07Z</time>
      </trkpt>
      <trkpt lat="42.98851" lon="2.37252">
        <ele>635</ele>
        <time>2018-05-20T14:35:32Z</time>
      </trkpt>
      <trkpt lat="42.98782" lon="2.3734">
        <ele>635</ele>
        <time>2018-05-20T14:36:01Z</time>
      </trkpt>
      <trkpt lat="42.98732" lon="2.3745">
        <ele>634</ele>
        <time>2018-05-20T14:36:33Z</time>
      </trkpt>
      <trkpt lat="42.98715" lon="2.37475">
        <ele>636</ele>
        <time>2018-05-20T14:36:41Z</time>
      </trkpt>
      <trkpt lat="42.98701" lon="2.37501">
        <ele>637</ele>
        <time>2018-05-20T14:36:50Z</time>
      </trkpt>
      <trkpt lat="42.98696" lon="2.37531">
        <ele>637</ele>
        <time>2018-05-20T14:36:57Z</time>
      </trkpt>
      <trkpt lat="42.98682" lon="2.37558">
        <ele>637</ele>
        <time>2018-05-20T14:37:05Z</time>
      </trkpt>
      <trkpt lat="42.98585" lon="2.37593">
        <ele>635</ele>
        <time>2018-05-20T14:37:38Z</time>
      </trkpt>
      <trkpt lat="42.98538" lon="2.3761">
        <ele>636</ele>
        <time>2018-05-20T14:37:55Z</time>
      </trkpt>
      <trkpt lat="42.98516" lon="2.37623">
        <ele>636</ele>
        <time>2018-05-20T14:38:03Z</time>
      </trkpt>
      <trkpt lat="42.98492" lon="2.37676">
        <ele>638</ele>
        <time>2018-05-20T14:38:18Z</time>
      </trkpt>
      <trkpt lat="42.9847" lon="2.37694">
        <ele>639</ele>
        <time>2018-05-20T14:38:27Z</time>
      </trkpt>
      <trkpt lat="42.98375" lon="2.37689">
        <ele>642</ele>
        <time>2018-05-20T14:38:59Z</time>
      </trkpt>
      <trkpt lat="42.98304" lon="2.3768">
        <ele>643</ele>
        <time>2018-05-20T14:39:30Z</time>
      </trkpt>
      <trkpt lat="42.98281" lon="2.37676">
        <ele>645</ele>
        <time>2018-05-20T14:39:40Z</time>
      </trkpt>
      <trkpt lat="42.98258" lon="2.37678">
        <ele>644</ele>
        <time>2018-05-20T14:39:50Z</time>
      </trkpt>
      <trkpt lat="42.98211" lon="2.37672">
        <ele>646</ele>
        <time>2018-05-20T14:40:10Z</time>
      </trkpt>
    </trkseg>
  </trk>
</gpx>